<?xml version="1.0" encoding="UTF-8" standalone="no" ?>
<gpx xmlns="http://www.topografix.com/GPX/1/1" xmlns:xsi="http://www.w3.org/2001/XMLSchema-instance" xsi:schemaLocation="http://www.topografix.com/GPX/1/1 http://www.topografix.com/GPX/1/1/gpx.xsd" version="1.1" creator="VisuGPX - https://www.visugpx.com">
  <metadata>
    <name>Randonnée école d\'Authoison 2014</name>
    <desc><![CDATA[Carte de la randonnée USEP 2014 Authoison]]></desc>
  </metadata>
  <trk>
    <name><![CDATA[Sequence 3]]></name>
    <trkseg>
      <trkpt lat="47.49901" lon="6.19357">
        <ele>262</ele>
        <time>2014-10-03T09:23:00Z</time>
      </trkpt>
      <trkpt lat="47.49905" lon="6.19362">
        <ele>259</ele>
        <time>2014-10-03T09:26:27Z</time>
      </trkpt>
      <trkpt lat="47.49912" lon="6.19381">
        <ele>262</ele>
        <time>2014-10-03T09:27:03Z</time>
      </trkpt>
      <trkpt lat="47.49915" lon="6.19386">
        <ele>261</ele>
        <time>2014-10-03T09:27:11Z</time>
      </trkpt>
      <trkpt lat="47.49919" lon="6.19394">
        <ele>260</ele>
        <time>2014-10-03T09:27:24Z</time>
      </trkpt>
      <trkpt lat="47.4992" lon="6.19398">
        <ele>256</ele>
        <time>2014-10-03T09:27:29Z</time>
      </trkpt>
      <trkpt lat="47.4993" lon="6.19402">
        <ele>254</ele>
        <time>2014-10-03T09:29:45Z</time>
      </trkpt>
      <trkpt lat="47.49936" lon="6.19401">
        <ele>252</ele>
        <time>2014-10-03T09:29:52Z</time>
      </trkpt>
      <trkpt lat="47.49946" lon="6.19397">
        <ele>254</ele>
        <time>2014-10-03T09:29:58Z</time>
      </trkpt>
      <trkpt lat="47.49966" lon="6.19394">
        <ele>254</ele>
        <time>2014-10-03T09:30:14Z</time>
      </trkpt>
      <trkpt lat="47.49976" lon="6.19392">
        <ele>256</ele>
        <time>2014-10-03T09:30:22Z</time>
      </trkpt>
      <trkpt lat="47.49979" lon="6.1939">
        <ele>256</ele>
        <time>2014-10-03T09:30:25Z</time>
      </trkpt>
      <trkpt lat="47.49988" lon="6.19369">
        <ele>255</ele>
        <time>2014-10-03T09:30:40Z</time>
      </trkpt>
      <trkpt lat="47.49988" lon="6.19356">
        <ele>254</ele>
        <time>2014-10-03T09:30:51Z</time>
      </trkpt>
      <trkpt lat="47.49988" lon="6.19353">
        <ele>253</ele>
        <time>2014-10-03T09:30:57Z</time>
      </trkpt>
      <trkpt lat="47.49986" lon="6.19346">
        <ele>253</ele>
        <time>2014-10-03T09:31:03Z</time>
      </trkpt>
      <trkpt lat="47.49985" lon="6.19321">
        <ele>258</ele>
        <time>2014-10-03T09:31:27Z</time>
      </trkpt>
      <trkpt lat="47.49984" lon="6.19317">
        <ele>256</ele>
        <time>2014-10-03T09:31:30Z</time>
      </trkpt>
      <trkpt lat="47.49981" lon="6.19296">
        <ele>256</ele>
        <time>2014-10-03T09:31:45Z</time>
      </trkpt>
      <trkpt lat="47.49978" lon="6.19286">
        <ele>255</ele>
        <time>2014-10-03T09:31:52Z</time>
      </trkpt>
      <trkpt lat="47.49977" lon="6.19276">
        <ele>255</ele>
        <time>2014-10-03T09:31:59Z</time>
      </trkpt>
      <trkpt lat="47.49978" lon="6.19263">
        <ele>256</ele>
        <time>2014-10-03T09:32:08Z</time>
      </trkpt>
      <trkpt lat="47.49974" lon="6.1925">
        <ele>256</ele>
        <time>2014-10-03T09:32:14Z</time>
      </trkpt>
      <trkpt lat="47.49974" lon="6.19244">
        <ele>257</ele>
        <time>2014-10-03T09:32:24Z</time>
      </trkpt>
      <trkpt lat="47.4997" lon="6.19228">
        <ele>256</ele>
        <time>2014-10-03T09:32:35Z</time>
      </trkpt>
      <trkpt lat="47.49973" lon="6.19217">
        <ele>255</ele>
        <time>2014-10-03T09:32:45Z</time>
      </trkpt>
      <trkpt lat="47.49968" lon="6.19198">
        <ele>259</ele>
        <time>2014-10-03T09:32:56Z</time>
      </trkpt>
      <trkpt lat="47.49967" lon="6.19194">
        <ele>258</ele>
        <time>2014-10-03T09:32:59Z</time>
      </trkpt>
      <trkpt lat="47.49968" lon="6.19184">
        <ele>256</ele>
        <time>2014-10-03T09:33:09Z</time>
      </trkpt>
      <trkpt lat="47.4997" lon="6.19176">
        <ele>258</ele>
        <time>2014-10-03T09:33:24Z</time>
      </trkpt>
      <trkpt lat="47.4997" lon="6.19168">
        <ele>258</ele>
        <time>2014-10-03T09:33:31Z</time>
      </trkpt>
      <trkpt lat="47.49971" lon="6.19159">
        <ele>256</ele>
        <time>2014-10-03T09:33:39Z</time>
      </trkpt>
      <trkpt lat="47.4997" lon="6.19137">
        <ele>255</ele>
        <time>2014-10-03T09:33:54Z</time>
      </trkpt>
      <trkpt lat="47.49969" lon="6.1913">
        <ele>254</ele>
        <time>2014-10-03T09:33:57Z</time>
      </trkpt>
      <trkpt lat="47.49971" lon="6.19116">
        <ele>254</ele>
        <time>2014-10-03T09:34:07Z</time>
      </trkpt>
      <trkpt lat="47.49973" lon="6.19107">
        <ele>256</ele>
        <time>2014-10-03T09:34:16Z</time>
      </trkpt>
      <trkpt lat="47.49973" lon="6.19096">
        <ele>256</ele>
        <time>2014-10-03T09:34:22Z</time>
      </trkpt>
      <trkpt lat="47.49973" lon="6.19074">
        <ele>257</ele>
        <time>2014-10-03T09:34:37Z</time>
      </trkpt>
      <trkpt lat="47.49977" lon="6.19067">
        <ele>259</ele>
        <time>2014-10-03T09:34:44Z</time>
      </trkpt>
      <trkpt lat="47.49981" lon="6.19058">
        <ele>259</ele>
        <time>2014-10-03T09:34:52Z</time>
      </trkpt>
      <trkpt lat="47.49985" lon="6.1905">
        <ele>260</ele>
        <time>2014-10-03T09:34:58Z</time>
      </trkpt>
      <trkpt lat="47.49987" lon="6.19039">
        <ele>260</ele>
        <time>2014-10-03T09:35:06Z</time>
      </trkpt>
      <trkpt lat="47.49992" lon="6.19024">
        <ele>261</ele>
        <time>2014-10-03T09:35:17Z</time>
      </trkpt>
      <trkpt lat="47.50002" lon="6.19013">
        <ele>266</ele>
        <time>2014-10-03T09:35:30Z</time>
      </trkpt>
      <trkpt lat="47.50005" lon="6.19006">
        <ele>268</ele>
        <time>2014-10-03T09:35:38Z</time>
      </trkpt>
      <trkpt lat="47.50006" lon="6.19003">
        <ele>266</ele>
        <time>2014-10-03T09:35:42Z</time>
      </trkpt>
      <trkpt lat="47.50017" lon="6.18992">
        <ele>264</ele>
        <time>2014-10-03T09:35:58Z</time>
      </trkpt>
      <trkpt lat="47.50024" lon="6.18979">
        <ele>267</ele>
        <time>2014-10-03T09:36:09Z</time>
      </trkpt>
      <trkpt lat="47.50027" lon="6.18975">
        <ele>267</ele>
        <time>2014-10-03T09:36:13Z</time>
      </trkpt>
      <trkpt lat="47.50031" lon="6.18971">
        <ele>266</ele>
        <time>2014-10-03T09:36:23Z</time>
      </trkpt>
      <trkpt lat="47.50036" lon="6.18971">
        <ele>263</ele>
        <time>2014-10-03T09:36:32Z</time>
      </trkpt>
      <trkpt lat="47.5004" lon="6.18965">
        <ele>261</ele>
        <time>2014-10-03T09:36:44Z</time>
      </trkpt>
      <trkpt lat="47.50043" lon="6.18958">
        <ele>261</ele>
        <time>2014-10-03T09:36:49Z</time>
      </trkpt>
      <trkpt lat="47.5005" lon="6.18943">
        <ele>263</ele>
        <time>2014-10-03T09:37:01Z</time>
      </trkpt>
      <trkpt lat="47.50051" lon="6.18929">
        <ele>263</ele>
        <time>2014-10-03T09:37:10Z</time>
      </trkpt>
      <trkpt lat="47.50051" lon="6.18906">
        <ele>263</ele>
        <time>2014-10-03T09:37:21Z</time>
      </trkpt>
      <trkpt lat="47.50051" lon="6.18902">
        <ele>262</ele>
        <time>2014-10-03T09:37:24Z</time>
      </trkpt>
      <trkpt lat="47.50048" lon="6.18883">
        <ele>263</ele>
        <time>2014-10-03T09:37:37Z</time>
      </trkpt>
      <trkpt lat="47.50047" lon="6.18877">
        <ele>261</ele>
        <time>2014-10-03T09:37:40Z</time>
      </trkpt>
      <trkpt lat="47.50035" lon="6.18856">
        <ele>269</ele>
        <time>2014-10-03T09:37:52Z</time>
      </trkpt>
      <trkpt lat="47.50039" lon="6.18849">
        <ele>270</ele>
        <time>2014-10-03T09:38:03Z</time>
      </trkpt>
      <trkpt lat="47.5004" lon="6.18841">
        <ele>267</ele>
        <time>2014-10-03T09:38:11Z</time>
      </trkpt>
      <trkpt lat="47.50042" lon="6.18829">
        <ele>265</ele>
        <time>2014-10-03T09:38:21Z</time>
      </trkpt>
      <trkpt lat="47.50042" lon="6.18823">
        <ele>264</ele>
        <time>2014-10-03T09:38:25Z</time>
      </trkpt>
      <trkpt lat="47.50043" lon="6.18806">
        <ele>264</ele>
        <time>2014-10-03T09:38:36Z</time>
      </trkpt>
      <trkpt lat="47.50048" lon="6.18785">
        <ele>267</ele>
        <time>2014-10-03T09:38:49Z</time>
      </trkpt>
      <trkpt lat="47.50052" lon="6.18774">
        <ele>268</ele>
        <time>2014-10-03T09:38:57Z</time>
      </trkpt>
      <trkpt lat="47.50054" lon="6.18769">
        <ele>267</ele>
        <time>2014-10-03T09:39:01Z</time>
      </trkpt>
      <trkpt lat="47.5006" lon="6.18756">
        <ele>267</ele>
        <time>2014-10-03T09:39:13Z</time>
      </trkpt>
      <trkpt lat="47.50071" lon="6.18746">
        <ele>266</ele>
        <time>2014-10-03T09:39:25Z</time>
      </trkpt>
      <trkpt lat="47.50077" lon="6.18743">
        <ele>261</ele>
        <time>2014-10-03T09:39:34Z</time>
      </trkpt>
      <trkpt lat="47.50083" lon="6.18739">
        <ele>262</ele>
        <time>2014-10-03T09:39:40Z</time>
      </trkpt>
      <trkpt lat="47.50091" lon="6.18735">
        <ele>263</ele>
        <time>2014-10-03T09:39:47Z</time>
      </trkpt>
      <trkpt lat="47.50097" lon="6.18738">
        <ele>264</ele>
        <time>2014-10-03T09:39:55Z</time>
      </trkpt>
      <trkpt lat="47.501" lon="6.18737">
        <ele>266</ele>
        <time>2014-10-03T09:40:11Z</time>
      </trkpt>
      <trkpt lat="47.5011" lon="6.18726">
        <ele>270</ele>
        <time>2014-10-03T09:41:17Z</time>
      </trkpt>
      <trkpt lat="47.50127" lon="6.18727">
        <ele>271</ele>
        <time>2014-10-03T09:41:34Z</time>
      </trkpt>
      <trkpt lat="47.50133" lon="6.18727">
        <ele>271</ele>
        <time>2014-10-03T09:41:42Z</time>
      </trkpt>
      <trkpt lat="47.5014" lon="6.1873">
        <ele>270</ele>
        <time>2014-10-03T09:41:52Z</time>
      </trkpt>
      <trkpt lat="47.50146" lon="6.18734">
        <ele>270</ele>
        <time>2014-10-03T09:42:00Z</time>
      </trkpt>
      <trkpt lat="47.5015" lon="6.18736">
        <ele>270</ele>
        <time>2014-10-03T09:42:05Z</time>
      </trkpt>
      <trkpt lat="47.50159" lon="6.18735">
        <ele>273</ele>
        <time>2014-10-03T09:42:17Z</time>
      </trkpt>
      <trkpt lat="47.50163" lon="6.18734">
        <ele>272</ele>
        <time>2014-10-03T09:42:24Z</time>
      </trkpt>
      <trkpt lat="47.50171" lon="6.18723">
        <ele>272</ele>
        <time>2014-10-03T09:42:35Z</time>
      </trkpt>
      <trkpt lat="47.50173" lon="6.18716">
        <ele>270</ele>
        <time>2014-10-03T09:42:41Z</time>
      </trkpt>
      <trkpt lat="47.50177" lon="6.18707">
        <ele>266</ele>
        <time>2014-10-03T09:42:51Z</time>
      </trkpt>
      <trkpt lat="47.50179" lon="6.18702">
        <ele>265</ele>
        <time>2014-10-03T09:42:56Z</time>
      </trkpt>
      <trkpt lat="47.50178" lon="6.18698">
        <ele>265</ele>
        <time>2014-10-03T09:43:06Z</time>
      </trkpt>
      <trkpt lat="47.50174" lon="6.18681">
        <ele>266</ele>
        <time>2014-10-03T09:43:22Z</time>
      </trkpt>
      <trkpt lat="47.5017" lon="6.18662">
        <ele>266</ele>
        <time>2014-10-03T09:43:31Z</time>
      </trkpt>
      <trkpt lat="47.5017" lon="6.18658">
        <ele>263</ele>
        <time>2014-10-03T09:43:34Z</time>
      </trkpt>
      <trkpt lat="47.50173" lon="6.1863">
        <ele>264</ele>
        <time>2014-10-03T09:43:49Z</time>
      </trkpt>
      <trkpt lat="47.50176" lon="6.18621">
        <ele>267</ele>
        <time>2014-10-03T09:43:55Z</time>
      </trkpt>
      <trkpt lat="47.5017" lon="6.18595">
        <ele>269</ele>
        <time>2014-10-03T09:44:05Z</time>
      </trkpt>
      <trkpt lat="47.5017" lon="6.18587">
        <ele>267</ele>
        <time>2014-10-03T09:44:10Z</time>
      </trkpt>
      <trkpt lat="47.50173" lon="6.18574">
        <ele>270</ele>
        <time>2014-10-03T09:44:24Z</time>
      </trkpt>
      <trkpt lat="47.50171" lon="6.18564">
        <ele>271</ele>
        <time>2014-10-03T09:44:39Z</time>
      </trkpt>
      <trkpt lat="47.50173" lon="6.18559">
        <ele>269</ele>
        <time>2014-10-03T09:44:49Z</time>
      </trkpt>
      <trkpt lat="47.50173" lon="6.18552">
        <ele>269</ele>
        <time>2014-10-03T09:45:13Z</time>
      </trkpt>
      <trkpt lat="47.50169" lon="6.18525">
        <ele>274</ele>
        <time>2014-10-03T09:45:29Z</time>
      </trkpt>
      <trkpt lat="47.5017" lon="6.18505">
        <ele>273</ele>
        <time>2014-10-03T09:45:54Z</time>
      </trkpt>
      <trkpt lat="47.50172" lon="6.18498">
        <ele>275</ele>
        <time>2014-10-03T09:45:59Z</time>
      </trkpt>
      <trkpt lat="47.50171" lon="6.18477">
        <ele>273</ele>
        <time>2014-10-03T09:46:15Z</time>
      </trkpt>
      <trkpt lat="47.50171" lon="6.18475">
        <ele>272</ele>
        <time>2014-10-03T09:46:19Z</time>
      </trkpt>
      <trkpt lat="47.50169" lon="6.18465">
        <ele>279</ele>
        <time>2014-10-03T09:46:25Z</time>
      </trkpt>
      <trkpt lat="47.50168" lon="6.18443">
        <ele>279</ele>
        <time>2014-10-03T09:46:37Z</time>
      </trkpt>
      <trkpt lat="47.5017" lon="6.18426">
        <ele>272</ele>
        <time>2014-10-03T09:46:51Z</time>
      </trkpt>
      <trkpt lat="47.50172" lon="6.18417">
        <ele>268</ele>
        <time>2014-10-03T09:46:57Z</time>
      </trkpt>
      <trkpt lat="47.50172" lon="6.18408">
        <ele>268</ele>
        <time>2014-10-03T09:47:02Z</time>
      </trkpt>
      <trkpt lat="47.50174" lon="6.18397">
        <ele>265</ele>
        <time>2014-10-03T09:47:10Z</time>
      </trkpt>
      <trkpt lat="47.50176" lon="6.18387">
        <ele>263</ele>
        <time>2014-10-03T09:47:18Z</time>
      </trkpt>
      <trkpt lat="47.50179" lon="6.18365">
        <ele>263</ele>
        <time>2014-10-03T09:47:32Z</time>
      </trkpt>
      <trkpt lat="47.50176" lon="6.18355">
        <ele>264</ele>
        <time>2014-10-03T09:47:39Z</time>
      </trkpt>
      <trkpt lat="47.50175" lon="6.18341">
        <ele>267</ele>
        <time>2014-10-03T09:47:52Z</time>
      </trkpt>
      <trkpt lat="47.5017" lon="6.18331">
        <ele>268</ele>
        <time>2014-10-03T09:48:02Z</time>
      </trkpt>
      <trkpt lat="47.50171" lon="6.18326">
        <ele>268</ele>
        <time>2014-10-03T09:48:05Z</time>
      </trkpt>
      <trkpt lat="47.50173" lon="6.18308">
        <ele>269</ele>
        <time>2014-10-03T09:48:17Z</time>
      </trkpt>
      <trkpt lat="47.50171" lon="6.18286">
        <ele>262</ele>
        <time>2014-10-03T09:48:29Z</time>
      </trkpt>
      <trkpt lat="47.50171" lon="6.18275">
        <ele>263</ele>
        <time>2014-10-03T09:48:35Z</time>
      </trkpt>
      <trkpt lat="47.5017" lon="6.18257">
        <ele>263</ele>
        <time>2014-10-03T09:48:45Z</time>
      </trkpt>
      <trkpt lat="47.50172" lon="6.1825">
        <ele>265</ele>
        <time>2014-10-03T09:48:50Z</time>
      </trkpt>
      <trkpt lat="47.50183" lon="6.18227">
        <ele>266</ele>
        <time>2014-10-03T09:49:06Z</time>
      </trkpt>
      <trkpt lat="47.50183" lon="6.18214">
        <ele>270</ele>
        <time>2014-10-03T09:49:14Z</time>
      </trkpt>
      <trkpt lat="47.50183" lon="6.18211">
        <ele>269</ele>
        <time>2014-10-03T09:49:16Z</time>
      </trkpt>
      <trkpt lat="47.50183" lon="6.18204">
        <ele>274</ele>
        <time>2014-10-03T09:49:25Z</time>
      </trkpt>
      <trkpt lat="47.50188" lon="6.18189">
        <ele>279</ele>
        <time>2014-10-03T09:49:36Z</time>
      </trkpt>
      <trkpt lat="47.50194" lon="6.18166">
        <ele>284</ele>
        <time>2014-10-03T09:49:51Z</time>
      </trkpt>
      <trkpt lat="47.50196" lon="6.18154">
        <ele>286</ele>
        <time>2014-10-03T09:49:59Z</time>
      </trkpt>
      <trkpt lat="47.50198" lon="6.18144">
        <ele>286</ele>
        <time>2014-10-03T09:50:06Z</time>
      </trkpt>
      <trkpt lat="47.50202" lon="6.18141">
        <ele>285</ele>
        <time>2014-10-03T09:50:12Z</time>
      </trkpt>
      <trkpt lat="47.50212" lon="6.18121">
        <ele>288</ele>
        <time>2014-10-03T09:50:25Z</time>
      </trkpt>
      <trkpt lat="47.50214" lon="6.18107">
        <ele>292</ele>
        <time>2014-10-03T09:50:34Z</time>
      </trkpt>
      <trkpt lat="47.50215" lon="6.18096">
        <ele>295</ele>
        <time>2014-10-03T09:50:41Z</time>
      </trkpt>
      <trkpt lat="47.5022" lon="6.18084">
        <ele>295</ele>
        <time>2014-10-03T09:50:51Z</time>
      </trkpt>
      <trkpt lat="47.50227" lon="6.18068">
        <ele>300</ele>
        <time>2014-10-03T09:51:03Z</time>
      </trkpt>
      <trkpt lat="47.50229" lon="6.1806">
        <ele>305</ele>
        <time>2014-10-03T09:51:10Z</time>
      </trkpt>
      <trkpt lat="47.5023" lon="6.18053">
        <ele>306</ele>
        <time>2014-10-03T09:51:15Z</time>
      </trkpt>
      <trkpt lat="47.50239" lon="6.18039">
        <ele>311</ele>
        <time>2014-10-03T09:51:30Z</time>
      </trkpt>
      <trkpt lat="47.50241" lon="6.18029">
        <ele>311</ele>
        <time>2014-10-03T09:51:36Z</time>
      </trkpt>
      <trkpt lat="47.50243" lon="6.18016">
        <ele>314</ele>
        <time>2014-10-03T09:51:47Z</time>
      </trkpt>
      <trkpt lat="47.50252" lon="6.18011">
        <ele>312</ele>
        <time>2014-10-03T09:51:57Z</time>
      </trkpt>
      <trkpt lat="47.50253" lon="6.1801">
        <ele>312</ele>
        <time>2014-10-03T09:51:59Z</time>
      </trkpt>
      <trkpt lat="47.50262" lon="6.17993">
        <ele>307</ele>
        <time>2014-10-03T09:52:16Z</time>
      </trkpt>
      <trkpt lat="47.50264" lon="6.1799">
        <ele>304</ele>
        <time>2014-10-03T09:52:20Z</time>
      </trkpt>
      <trkpt lat="47.50275" lon="6.17972">
        <ele>301</ele>
        <time>2014-10-03T09:52:32Z</time>
      </trkpt>
      <trkpt lat="47.50277" lon="6.1796">
        <ele>299</ele>
        <time>2014-10-03T09:52:41Z</time>
      </trkpt>
      <trkpt lat="47.50275" lon="6.17946">
        <ele>302</ele>
        <time>2014-10-03T09:52:50Z</time>
      </trkpt>
      <trkpt lat="47.50271" lon="6.17936">
        <ele>297</ele>
        <time>2014-10-03T09:52:59Z</time>
      </trkpt>
      <trkpt lat="47.50267" lon="6.17938">
        <ele>290</ele>
        <time>2014-10-03T09:53:11Z</time>
      </trkpt>
      <trkpt lat="47.50263" lon="6.17936">
        <ele>289</ele>
        <time>2014-10-03T09:53:17Z</time>
      </trkpt>
      <trkpt lat="47.50258" lon="6.17932">
        <ele>287</ele>
        <time>2014-10-03T09:53:24Z</time>
      </trkpt>
      <trkpt lat="47.50251" lon="6.17923">
        <ele>287</ele>
        <time>2014-10-03T09:53:36Z</time>
      </trkpt>
      <trkpt lat="47.50246" lon="6.17913">
        <ele>284</ele>
        <time>2014-10-03T09:53:46Z</time>
      </trkpt>
      <trkpt lat="47.50246" lon="6.17906">
        <ele>283</ele>
        <time>2014-10-03T09:53:51Z</time>
      </trkpt>
      <trkpt lat="47.50246" lon="6.17902">
        <ele>282</ele>
        <time>2014-10-03T09:54:03Z</time>
      </trkpt>
      <trkpt lat="47.50241" lon="6.1788">
        <ele>283</ele>
        <time>2014-10-03T09:54:21Z</time>
      </trkpt>
      <trkpt lat="47.5024" lon="6.17872">
        <ele>281</ele>
        <time>2014-10-03T09:54:26Z</time>
      </trkpt>
      <trkpt lat="47.50237" lon="6.17863">
        <ele>280</ele>
        <time>2014-10-03T09:54:34Z</time>
      </trkpt>
      <trkpt lat="47.50236" lon="6.1786">
        <ele>280</ele>
        <time>2014-10-03T09:54:42Z</time>
      </trkpt>
      <trkpt lat="47.50238" lon="6.17859">
        <ele>280</ele>
        <time>2014-10-03T09:54:57Z</time>
      </trkpt>
      <trkpt lat="47.50239" lon="6.17851">
        <ele>280</ele>
        <time>2014-10-03T09:55:19Z</time>
      </trkpt>
      <trkpt lat="47.5024" lon="6.17841">
        <ele>282</ele>
        <time>2014-10-03T09:55:34Z</time>
      </trkpt>
      <trkpt lat="47.5024" lon="6.17834">
        <ele>281</ele>
        <time>2014-10-03T09:55:38Z</time>
      </trkpt>
      <trkpt lat="47.50242" lon="6.17821">
        <ele>283</ele>
        <time>2014-10-03T09:55:46Z</time>
      </trkpt>
      <trkpt lat="47.50243" lon="6.17811">
        <ele>284</ele>
        <time>2014-10-03T09:55:53Z</time>
      </trkpt>
      <trkpt lat="47.50245" lon="6.17789">
        <ele>287</ele>
        <time>2014-10-03T09:56:10Z</time>
      </trkpt>
      <trkpt lat="47.50245" lon="6.17779">
        <ele>287</ele>
        <time>2014-10-03T09:56:19Z</time>
      </trkpt>
      <trkpt lat="47.50245" lon="6.1777">
        <ele>286</ele>
        <time>2014-10-03T09:56:26Z</time>
      </trkpt>
      <trkpt lat="47.50247" lon="6.17758">
        <ele>285</ele>
        <time>2014-10-03T09:56:35Z</time>
      </trkpt>
      <trkpt lat="47.50249" lon="6.17746">
        <ele>285</ele>
        <time>2014-10-03T09:56:45Z</time>
      </trkpt>
      <trkpt lat="47.50249" lon="6.17739">
        <ele>288</ele>
        <time>2014-10-03T09:56:55Z</time>
      </trkpt>
      <trkpt lat="47.50249" lon="6.17737">
        <ele>287</ele>
        <time>2014-10-03T09:57:01Z</time>
      </trkpt>
      <trkpt lat="47.50248" lon="6.17733">
        <ele>287</ele>
        <time>2014-10-03T09:57:08Z</time>
      </trkpt>
      <trkpt lat="47.50249" lon="6.17721">
        <ele>290</ele>
        <time>2014-10-03T09:57:20Z</time>
      </trkpt>
      <trkpt lat="47.50252" lon="6.17706">
        <ele>292</ele>
        <time>2014-10-03T09:57:32Z</time>
      </trkpt>
      <trkpt lat="47.50253" lon="6.17696">
        <ele>295</ele>
        <time>2014-10-03T09:57:37Z</time>
      </trkpt>
      <trkpt lat="47.50257" lon="6.17678">
        <ele>297</ele>
        <time>2014-10-03T09:57:49Z</time>
      </trkpt>
      <trkpt lat="47.50259" lon="6.17673">
        <ele>295</ele>
        <time>2014-10-03T09:57:55Z</time>
      </trkpt>
      <trkpt lat="47.50263" lon="6.17682">
        <ele>291</ele>
        <time>2014-10-03T10:00:07Z</time>
      </trkpt>
      <trkpt lat="47.50263" lon="6.17675">
        <ele>288</ele>
        <time>2014-10-03T10:00:29Z</time>
      </trkpt>
      <trkpt lat="47.50268" lon="6.17659">
        <ele>289</ele>
        <time>2014-10-03T10:00:37Z</time>
      </trkpt>
      <trkpt lat="47.50269" lon="6.17644">
        <ele>286</ele>
        <time>2014-10-03T10:00:51Z</time>
      </trkpt>
      <trkpt lat="47.50265" lon="6.17647">
        <ele>287</ele>
        <time>2014-10-03T10:03:24Z</time>
      </trkpt>
      <trkpt lat="47.50266" lon="6.1764">
        <ele>289</ele>
        <time>2014-10-03T10:03:46Z</time>
      </trkpt>
      <trkpt lat="47.50265" lon="6.17638">
        <ele>290</ele>
        <time>2014-10-03T10:03:51Z</time>
      </trkpt>
      <trkpt lat="47.50265" lon="6.17634">
        <ele>291</ele>
        <time>2014-10-03T10:04:00Z</time>
      </trkpt>
      <trkpt lat="47.50268" lon="6.1762">
        <ele>293</ele>
        <time>2014-10-03T10:04:22Z</time>
      </trkpt>
      <trkpt lat="47.50269" lon="6.17602">
        <ele>291</ele>
        <time>2014-10-03T10:04:32Z</time>
      </trkpt>
      <trkpt lat="47.50269" lon="6.17588">
        <ele>290</ele>
        <time>2014-10-03T10:04:42Z</time>
      </trkpt>
      <trkpt lat="47.50272" lon="6.17574">
        <ele>289</ele>
        <time>2014-10-03T10:04:50Z</time>
      </trkpt>
      <trkpt lat="47.50276" lon="6.1756">
        <ele>290</ele>
        <time>2014-10-03T10:04:59Z</time>
      </trkpt>
      <trkpt lat="47.50276" lon="6.17552">
        <ele>290</ele>
        <time>2014-10-03T10:05:06Z</time>
      </trkpt>
      <trkpt lat="47.50282" lon="6.17549">
        <ele>284</ele>
        <time>2014-10-03T10:05:18Z</time>
      </trkpt>
      <trkpt lat="47.50281" lon="6.1755">
        <ele>284</ele>
        <time>2014-10-03T10:07:31Z</time>
      </trkpt>
      <trkpt lat="47.50281" lon="6.1755">
        <ele>284</ele>
        <time>2014-10-03T10:09:47Z</time>
      </trkpt>
      <trkpt lat="47.50281" lon="6.1755">
        <ele>284</ele>
        <time>2014-10-03T10:12:02Z</time>
      </trkpt>
      <trkpt lat="47.50281" lon="6.1755">
        <ele>284</ele>
        <time>2014-10-03T10:14:26Z</time>
      </trkpt>
      <trkpt lat="47.50281" lon="6.1755">
        <ele>284</ele>
        <time>2014-10-03T10:17:23Z</time>
      </trkpt>
      <trkpt lat="47.50281" lon="6.1755">
        <ele>284</ele>
        <time>2014-10-03T10:19:42Z</time>
      </trkpt>
      <trkpt lat="47.50281" lon="6.1755">
        <ele>284</ele>
        <time>2014-10-03T10:22:15Z</time>
      </trkpt>
      <trkpt lat="47.50281" lon="6.1755">
        <ele>284</ele>
        <time>2014-10-03T10:24:30Z</time>
      </trkpt>
      <trkpt lat="47.50281" lon="6.1755">
        <ele>285</ele>
        <time>2014-10-03T10:26:49Z</time>
      </trkpt>
      <trkpt lat="47.50281" lon="6.1755">
        <ele>285</ele>
        <time>2014-10-03T10:29:29Z</time>
      </trkpt>
      <trkpt lat="47.50281" lon="6.1755">
        <ele>285</ele>
        <time>2014-10-03T10:31:43Z</time>
      </trkpt>
      <trkpt lat="47.50281" lon="6.1755">
        <ele>285</ele>
        <time>2014-10-03T10:34:01Z</time>
      </trkpt>
      <trkpt lat="47.50281" lon="6.1755">
        <ele>285</ele>
        <time>2014-10-03T10:36:11Z</time>
      </trkpt>
      <trkpt lat="47.50281" lon="6.1755">
        <ele>285</ele>
        <time>2014-10-03T10:38:29Z</time>
      </trkpt>
      <trkpt lat="47.50281" lon="6.17549">
        <ele>285</ele>
        <time>2014-10-03T10:40:51Z</time>
      </trkpt>
      <trkpt lat="47.50281" lon="6.17549">
        <ele>285</ele>
        <time>2014-10-03T10:43:05Z</time>
      </trkpt>
      <trkpt lat="47.50281" lon="6.17549">
        <ele>285</ele>
        <time>2014-10-03T10:45:25Z</time>
      </trkpt>
      <trkpt lat="47.50281" lon="6.17549">
        <ele>285</ele>
        <time>2014-10-03T10:47:52Z</time>
      </trkpt>
      <trkpt lat="47.50278" lon="6.17544">
        <ele>285</ele>
        <time>2014-10-03T10:51:21Z</time>
      </trkpt>
      <trkpt lat="47.5028" lon="6.17543">
        <ele>281</ele>
        <time>2014-10-03T10:53:44Z</time>
      </trkpt>
      <trkpt lat="47.50281" lon="6.17548">
        <ele>283</ele>
        <time>2014-10-03T10:55:56Z</time>
      </trkpt>
      <trkpt lat="47.50283" lon="6.17546">
        <ele>287</ele>
        <time>2014-10-03T10:58:13Z</time>
      </trkpt>
      <trkpt lat="47.50284" lon="6.17538">
        <ele>291</ele>
        <time>2014-10-03T11:00:31Z</time>
      </trkpt>
      <trkpt lat="47.50293" lon="6.1754">
        <ele>287</ele>
        <time>2014-10-03T11:00:45Z</time>
      </trkpt>
      <trkpt lat="47.50288" lon="6.17537">
        <ele>289</ele>
        <time>2014-10-03T11:00:55Z</time>
      </trkpt>
      <trkpt lat="47.50283" lon="6.17539">
        <ele>290</ele>
        <time>2014-10-03T11:01:05Z</time>
      </trkpt>
      <trkpt lat="47.50289" lon="6.1753">
        <ele>290</ele>
        <time>2014-10-03T11:01:33Z</time>
      </trkpt>
      <trkpt lat="47.50294" lon="6.17514">
        <ele>290</ele>
        <time>2014-10-03T11:01:43Z</time>
      </trkpt>
      <trkpt lat="47.50297" lon="6.17504">
        <ele>290</ele>
        <time>2014-10-03T11:01:49Z</time>
      </trkpt>
      <trkpt lat="47.50302" lon="6.17495">
        <ele>289</ele>
        <time>2014-10-03T11:01:58Z</time>
      </trkpt>
      <trkpt lat="47.50305" lon="6.17475">
        <ele>286</ele>
        <time>2014-10-03T11:02:11Z</time>
      </trkpt>
      <trkpt lat="47.5031" lon="6.17468">
        <ele>286</ele>
        <time>2014-10-03T11:02:18Z</time>
      </trkpt>
      <trkpt lat="47.50315" lon="6.17448">
        <ele>285</ele>
        <time>2014-10-03T11:02:31Z</time>
      </trkpt>
      <trkpt lat="47.50317" lon="6.1744">
        <ele>286</ele>
        <time>2014-10-03T11:02:38Z</time>
      </trkpt>
      <trkpt lat="47.50319" lon="6.1743">
        <ele>286</ele>
        <time>2014-10-03T11:02:44Z</time>
      </trkpt>
      <trkpt lat="47.50319" lon="6.17418">
        <ele>288</ele>
        <time>2014-10-03T11:02:52Z</time>
      </trkpt>
      <trkpt lat="47.50317" lon="6.17406">
        <ele>288</ele>
        <time>2014-10-03T11:03:02Z</time>
      </trkpt>
      <trkpt lat="47.50317" lon="6.17401">
        <ele>288</ele>
        <time>2014-10-03T11:03:15Z</time>
      </trkpt>
      <trkpt lat="47.50314" lon="6.17395">
        <ele>290</ele>
        <time>2014-10-03T11:03:24Z</time>
      </trkpt>
      <trkpt lat="47.50309" lon="6.17378">
        <ele>290</ele>
        <time>2014-10-03T11:03:32Z</time>
      </trkpt>
      <trkpt lat="47.50306" lon="6.17362">
        <ele>296</ele>
        <time>2014-10-03T11:03:43Z</time>
      </trkpt>
      <trkpt lat="47.50306" lon="6.17359">
        <ele>294</ele>
        <time>2014-10-03T11:03:47Z</time>
      </trkpt>
      <trkpt lat="47.50304" lon="6.17348">
        <ele>291</ele>
        <time>2014-10-03T11:04:11Z</time>
      </trkpt>
      <trkpt lat="47.50303" lon="6.17342">
        <ele>292</ele>
        <time>2014-10-03T11:04:15Z</time>
      </trkpt>
      <trkpt lat="47.50302" lon="6.17339">
        <ele>291</ele>
        <time>2014-10-03T11:04:22Z</time>
      </trkpt>
      <trkpt lat="47.50301" lon="6.17333">
        <ele>292</ele>
        <time>2014-10-03T11:04:44Z</time>
      </trkpt>
      <trkpt lat="47.50281" lon="6.17274">
        <ele>300</ele>
        <time>2014-10-03T11:05:31Z</time>
      </trkpt>
      <trkpt lat="47.50279" lon="6.17264">
        <ele>300</ele>
        <time>2014-10-03T11:05:37Z</time>
      </trkpt>
      <trkpt lat="47.50275" lon="6.17253">
        <ele>300</ele>
        <time>2014-10-03T11:05:43Z</time>
      </trkpt>
      <trkpt lat="47.50267" lon="6.17232">
        <ele>303</ele>
        <time>2014-10-03T11:05:58Z</time>
      </trkpt>
      <trkpt lat="47.50264" lon="6.17218">
        <ele>302</ele>
        <time>2014-10-03T11:06:08Z</time>
      </trkpt>
      <trkpt lat="47.50263" lon="6.17215">
        <ele>303</ele>
        <time>2014-10-03T11:06:13Z</time>
      </trkpt>
      <trkpt lat="47.50263" lon="6.17209">
        <ele>307</ele>
        <time>2014-10-03T11:06:20Z</time>
      </trkpt>
      <trkpt lat="47.50256" lon="6.17188">
        <ele>305</ele>
        <time>2014-10-03T11:06:35Z</time>
      </trkpt>
      <trkpt lat="47.50257" lon="6.17182">
        <ele>306</ele>
        <time>2014-10-03T11:06:39Z</time>
      </trkpt>
      <trkpt lat="47.50246" lon="6.17157">
        <ele>307</ele>
        <time>2014-10-03T11:06:52Z</time>
      </trkpt>
      <trkpt lat="47.50247" lon="6.1716">
        <ele>307</ele>
        <time>2014-10-03T11:06:59Z</time>
      </trkpt>
      <trkpt lat="47.50244" lon="6.17144">
        <ele>306</ele>
        <time>2014-10-03T11:07:43Z</time>
      </trkpt>
      <trkpt lat="47.50239" lon="6.17129">
        <ele>308</ele>
        <time>2014-10-03T11:07:54Z</time>
      </trkpt>
      <trkpt lat="47.50237" lon="6.1712">
        <ele>310</ele>
        <time>2014-10-03T11:08:02Z</time>
      </trkpt>
      <trkpt lat="47.5023" lon="6.17105">
        <ele>310</ele>
        <time>2014-10-03T11:08:11Z</time>
      </trkpt>
      <trkpt lat="47.50227" lon="6.17101">
        <ele>311</ele>
        <time>2014-10-03T11:08:19Z</time>
      </trkpt>
      <trkpt lat="47.50223" lon="6.17091">
        <ele>311</ele>
        <time>2014-10-03T11:08:28Z</time>
      </trkpt>
      <trkpt lat="47.50219" lon="6.17068">
        <ele>317</ele>
        <time>2014-10-03T11:08:42Z</time>
      </trkpt>
      <trkpt lat="47.50214" lon="6.17059">
        <ele>318</ele>
        <time>2014-10-03T11:08:47Z</time>
      </trkpt>
      <trkpt lat="47.50214" lon="6.17052">
        <ele>318</ele>
        <time>2014-10-03T11:09:00Z</time>
      </trkpt>
      <trkpt lat="47.5021" lon="6.17032">
        <ele>320</ele>
        <time>2014-10-03T11:09:13Z</time>
      </trkpt>
      <trkpt lat="47.50217" lon="6.17009">
        <ele>314</ele>
        <time>2014-10-03T11:09:25Z</time>
      </trkpt>
      <trkpt lat="47.50216" lon="6.17002">
        <ele>315</ele>
        <time>2014-10-03T11:09:30Z</time>
      </trkpt>
      <trkpt lat="47.50218" lon="6.16991">
        <ele>307</ele>
        <time>2014-10-03T11:09:46Z</time>
      </trkpt>
      <trkpt lat="47.50219" lon="6.16987">
        <ele>306</ele>
        <time>2014-10-03T11:09:48Z</time>
      </trkpt>
      <trkpt lat="47.50206" lon="6.1696">
        <ele>307</ele>
        <time>2014-10-03T11:10:04Z</time>
      </trkpt>
      <trkpt lat="47.50206" lon="6.16958">
        <ele>307</ele>
        <time>2014-10-03T11:10:06Z</time>
      </trkpt>
      <trkpt lat="47.50204" lon="6.16955">
        <ele>310</ele>
        <time>2014-10-03T11:10:15Z</time>
      </trkpt>
      <trkpt lat="47.502" lon="6.16941">
        <ele>306</ele>
        <time>2014-10-03T11:10:23Z</time>
      </trkpt>
      <trkpt lat="47.50191" lon="6.16908">
        <ele>313</ele>
        <time>2014-10-03T11:10:38Z</time>
      </trkpt>
      <trkpt lat="47.50191" lon="6.16903">
        <ele>314</ele>
        <time>2014-10-03T11:10:43Z</time>
      </trkpt>
      <trkpt lat="47.50187" lon="6.1688">
        <ele>313</ele>
        <time>2014-10-03T11:10:57Z</time>
      </trkpt>
      <trkpt lat="47.50186" lon="6.16874">
        <ele>312</ele>
        <time>2014-10-03T11:11:02Z</time>
      </trkpt>
      <trkpt lat="47.50184" lon="6.16862">
        <ele>307</ele>
        <time>2014-10-03T11:11:14Z</time>
      </trkpt>
      <trkpt lat="47.50183" lon="6.16857">
        <ele>311</ele>
        <time>2014-10-03T11:11:20Z</time>
      </trkpt>
      <trkpt lat="47.50185" lon="6.16846">
        <ele>308</ele>
        <time>2014-10-03T11:11:31Z</time>
      </trkpt>
      <trkpt lat="47.50184" lon="6.16823">
        <ele>308</ele>
        <time>2014-10-03T11:11:41Z</time>
      </trkpt>
      <trkpt lat="47.50182" lon="6.16806">
        <ele>312</ele>
        <time>2014-10-03T11:11:52Z</time>
      </trkpt>
      <trkpt lat="47.5018" lon="6.16804">
        <ele>312</ele>
        <time>2014-10-03T11:11:54Z</time>
      </trkpt>
      <trkpt lat="47.5018" lon="6.168">
        <ele>314</ele>
        <time>2014-10-03T11:12:08Z</time>
      </trkpt>
      <trkpt lat="47.50176" lon="6.16792">
        <ele>314</ele>
        <time>2014-10-03T11:14:27Z</time>
      </trkpt>
      <trkpt lat="47.50175" lon="6.16781">
        <ele>306</ele>
        <time>2014-10-03T11:15:07Z</time>
      </trkpt>
      <trkpt lat="47.50172" lon="6.16778">
        <ele>306</ele>
        <time>2014-10-03T11:15:17Z</time>
      </trkpt>
      <trkpt lat="47.50165" lon="6.16766">
        <ele>312</ele>
        <time>2014-10-03T11:15:43Z</time>
      </trkpt>
      <trkpt lat="47.50161" lon="6.16759">
        <ele>313</ele>
        <time>2014-10-03T11:15:56Z</time>
      </trkpt>
      <trkpt lat="47.50163" lon="6.16756">
        <ele>313</ele>
        <time>2014-10-03T11:16:08Z</time>
      </trkpt>
      <trkpt lat="47.50164" lon="6.16751">
        <ele>314</ele>
        <time>2014-10-03T11:16:20Z</time>
      </trkpt>
      <trkpt lat="47.50161" lon="6.16745">
        <ele>317</ele>
        <time>2014-10-03T11:16:37Z</time>
      </trkpt>
      <trkpt lat="47.50168" lon="6.16749">
        <ele>321</ele>
        <time>2014-10-03T11:18:53Z</time>
      </trkpt>
      <trkpt lat="47.50166" lon="6.16748">
        <ele>321</ele>
        <time>2014-10-03T11:19:01Z</time>
      </trkpt>
      <trkpt lat="47.50168" lon="6.1674">
        <ele>326</ele>
        <time>2014-10-03T11:21:20Z</time>
      </trkpt>
      <trkpt lat="47.50161" lon="6.16743">
        <ele>325</ele>
        <time>2014-10-03T11:23:36Z</time>
      </trkpt>
      <trkpt lat="47.50159" lon="6.16719">
        <ele>334</ele>
        <time>2014-10-03T11:24:33Z</time>
      </trkpt>
      <trkpt lat="47.5016" lon="6.16717">
        <ele>332</ele>
        <time>2014-10-03T11:24:36Z</time>
      </trkpt>
      <trkpt lat="47.50162" lon="6.16715">
        <ele>331</ele>
        <time>2014-10-03T11:24:43Z</time>
      </trkpt>
      <trkpt lat="47.50153" lon="6.16685">
        <ele>318</ele>
        <time>2014-10-03T11:25:46Z</time>
      </trkpt>
      <trkpt lat="47.50146" lon="6.16673">
        <ele>316</ele>
        <time>2014-10-03T11:25:55Z</time>
      </trkpt>
      <trkpt lat="47.50145" lon="6.16671">
        <ele>317</ele>
        <time>2014-10-03T11:25:59Z</time>
      </trkpt>
      <trkpt lat="47.50142" lon="6.16646">
        <ele>314</ele>
        <time>2014-10-03T11:26:22Z</time>
      </trkpt>
      <trkpt lat="47.5014" lon="6.1664">
        <ele>312</ele>
        <time>2014-10-03T11:26:33Z</time>
      </trkpt>
      <trkpt lat="47.50132" lon="6.1661">
        <ele>317</ele>
        <time>2014-10-03T11:26:51Z</time>
      </trkpt>
      <trkpt lat="47.50131" lon="6.16609">
        <ele>318</ele>
        <time>2014-10-03T11:26:52Z</time>
      </trkpt>
      <trkpt lat="47.50136" lon="6.16595">
        <ele>321</ele>
        <time>2014-10-03T11:27:08Z</time>
      </trkpt>
      <trkpt lat="47.50128" lon="6.16585">
        <ele>324</ele>
        <time>2014-10-03T11:27:32Z</time>
      </trkpt>
      <trkpt lat="47.50125" lon="6.16571">
        <ele>319</ele>
        <time>2014-10-03T11:27:41Z</time>
      </trkpt>
      <trkpt lat="47.50125" lon="6.16554">
        <ele>318</ele>
        <time>2014-10-03T11:27:53Z</time>
      </trkpt>
      <trkpt lat="47.5012" lon="6.16542">
        <ele>318</ele>
        <time>2014-10-03T11:28:01Z</time>
      </trkpt>
      <trkpt lat="47.50118" lon="6.16528">
        <ele>315</ele>
        <time>2014-10-03T11:28:12Z</time>
      </trkpt>
      <trkpt lat="47.50117" lon="6.16527">
        <ele>315</ele>
        <time>2014-10-03T11:28:13Z</time>
      </trkpt>
      <trkpt lat="47.50113" lon="6.16516">
        <ele>314</ele>
        <time>2014-10-03T11:28:23Z</time>
      </trkpt>
      <trkpt lat="47.5011" lon="6.16504">
        <ele>310</ele>
        <time>2014-10-03T11:28:39Z</time>
      </trkpt>
      <trkpt lat="47.5011" lon="6.16503">
        <ele>311</ele>
        <time>2014-10-03T11:28:43Z</time>
      </trkpt>
      <trkpt lat="47.50094" lon="6.16493">
        <ele>310</ele>
        <time>2014-10-03T11:29:09Z</time>
      </trkpt>
      <trkpt lat="47.50094" lon="6.16486">
        <ele>313</ele>
        <time>2014-10-03T11:29:16Z</time>
      </trkpt>
      <trkpt lat="47.50071" lon="6.16457">
        <ele>313</ele>
        <time>2014-10-03T11:29:34Z</time>
      </trkpt>
      <trkpt lat="47.50071" lon="6.16455">
        <ele>311</ele>
        <time>2014-10-03T11:29:37Z</time>
      </trkpt>
      <trkpt lat="47.50062" lon="6.16432">
        <ele>314</ele>
        <time>2014-10-03T11:30:00Z</time>
      </trkpt>
      <trkpt lat="47.50059" lon="6.16426">
        <ele>317</ele>
        <time>2014-10-03T11:30:04Z</time>
      </trkpt>
      <trkpt lat="47.50053" lon="6.16417">
        <ele>317</ele>
        <time>2014-10-03T11:30:18Z</time>
      </trkpt>
      <trkpt lat="47.50052" lon="6.16416">
        <ele>317</ele>
        <time>2014-10-03T11:30:24Z</time>
      </trkpt>
      <trkpt lat="47.5004" lon="6.16407">
        <ele>315</ele>
        <time>2014-10-03T11:30:34Z</time>
      </trkpt>
      <trkpt lat="47.50037" lon="6.16401">
        <ele>314</ele>
        <time>2014-10-03T11:30:40Z</time>
      </trkpt>
      <trkpt lat="47.50033" lon="6.16388">
        <ele>310</ele>
        <time>2014-10-03T11:30:48Z</time>
      </trkpt>
      <trkpt lat="47.50018" lon="6.16385">
        <ele>310</ele>
        <time>2014-10-03T11:30:56Z</time>
      </trkpt>
      <trkpt lat="47.50018" lon="6.1638">
        <ele>310</ele>
        <time>2014-10-03T11:31:10Z</time>
      </trkpt>
      <trkpt lat="47.5002" lon="6.16362">
        <ele>312</ele>
        <time>2014-10-03T11:32:07Z</time>
      </trkpt>
      <trkpt lat="47.50011" lon="6.16352">
        <ele>315</ele>
        <time>2014-10-03T11:34:20Z</time>
      </trkpt>
      <trkpt lat="47.50005" lon="6.16353">
        <ele>317</ele>
        <time>2014-10-03T11:34:31Z</time>
      </trkpt>
      <trkpt lat="47.5" lon="6.16343">
        <ele>317</ele>
        <time>2014-10-03T11:34:40Z</time>
      </trkpt>
      <trkpt lat="47.49999" lon="6.16334">
        <ele>315</ele>
        <time>2014-10-03T11:34:48Z</time>
      </trkpt>
      <trkpt lat="47.49998" lon="6.16327">
        <ele>315</ele>
        <time>2014-10-03T11:34:53Z</time>
      </trkpt>
      <trkpt lat="47.49997" lon="6.16318">
        <ele>316</ele>
        <time>2014-10-03T11:35:01Z</time>
      </trkpt>
      <trkpt lat="47.49994" lon="6.16301">
        <ele>314</ele>
        <time>2014-10-03T11:35:16Z</time>
      </trkpt>
      <trkpt lat="47.49992" lon="6.16299">
        <ele>312</ele>
        <time>2014-10-03T11:35:23Z</time>
      </trkpt>
      <trkpt lat="47.4999" lon="6.16298">
        <ele>312</ele>
        <time>2014-10-03T11:35:32Z</time>
      </trkpt>
      <trkpt lat="47.49979" lon="6.1629">
        <ele>313</ele>
        <time>2014-10-03T11:35:41Z</time>
      </trkpt>
      <trkpt lat="47.49974" lon="6.16285">
        <ele>314</ele>
        <time>2014-10-03T11:35:59Z</time>
      </trkpt>
      <trkpt lat="47.49968" lon="6.1628">
        <ele>315</ele>
        <time>2014-10-03T11:36:07Z</time>
      </trkpt>
      <trkpt lat="47.49952" lon="6.16267">
        <ele>317</ele>
        <time>2014-10-03T11:36:29Z</time>
      </trkpt>
      <trkpt lat="47.49936" lon="6.1626">
        <ele>315</ele>
        <time>2014-10-03T11:36:45Z</time>
      </trkpt>
      <trkpt lat="47.49934" lon="6.16258">
        <ele>314</ele>
        <time>2014-10-03T11:36:54Z</time>
      </trkpt>
      <trkpt lat="47.49919" lon="6.16246">
        <ele>315</ele>
        <time>2014-10-03T11:37:03Z</time>
      </trkpt>
      <trkpt lat="47.49917" lon="6.16245">
        <ele>315</ele>
        <time>2014-10-03T11:37:09Z</time>
      </trkpt>
      <trkpt lat="47.49908" lon="6.16235">
        <ele>315</ele>
        <time>2014-10-03T11:37:30Z</time>
      </trkpt>
      <trkpt lat="47.49901" lon="6.16229">
        <ele>315</ele>
        <time>2014-10-03T11:37:39Z</time>
      </trkpt>
      <trkpt lat="47.49892" lon="6.16223">
        <ele>312</ele>
        <time>2014-10-03T11:37:47Z</time>
      </trkpt>
      <trkpt lat="47.49884" lon="6.16211">
        <ele>314</ele>
        <time>2014-10-03T11:37:59Z</time>
      </trkpt>
      <trkpt lat="47.49867" lon="6.16204">
        <ele>310</ele>
        <time>2014-10-03T11:38:26Z</time>
      </trkpt>
      <trkpt lat="47.49867" lon="6.16203">
        <ele>310</ele>
        <time>2014-10-03T11:38:27Z</time>
      </trkpt>
      <trkpt lat="47.49862" lon="6.16196">
        <ele>307</ele>
        <time>2014-10-03T11:38:43Z</time>
      </trkpt>
      <trkpt lat="47.49858" lon="6.16191">
        <ele>305</ele>
        <time>2014-10-03T11:38:48Z</time>
      </trkpt>
      <trkpt lat="47.49852" lon="6.16182">
        <ele>305</ele>
        <time>2014-10-03T11:39:00Z</time>
      </trkpt>
      <trkpt lat="47.49848" lon="6.16185">
        <ele>300</ele>
        <time>2014-10-03T11:41:13Z</time>
      </trkpt>
      <trkpt lat="47.49843" lon="6.16184">
        <ele>291</ele>
        <time>2014-10-03T11:43:35Z</time>
      </trkpt>
      <trkpt lat="47.49842" lon="6.16183">
        <ele>292</ele>
        <time>2014-10-03T11:46:15Z</time>
      </trkpt>
      <trkpt lat="47.49847" lon="6.16184">
        <ele>297</ele>
        <time>2014-10-03T11:48:34Z</time>
      </trkpt>
      <trkpt lat="47.49845" lon="6.16181">
        <ele>298</ele>
        <time>2014-10-03T11:50:56Z</time>
      </trkpt>
      <trkpt lat="47.49846" lon="6.16184">
        <ele>296</ele>
        <time>2014-10-03T11:51:03Z</time>
      </trkpt>
      <trkpt lat="47.49848" lon="6.16179">
        <ele>289</ele>
        <time>2014-10-03T11:53:23Z</time>
      </trkpt>
      <trkpt lat="47.49847" lon="6.16179">
        <ele>289</ele>
        <time>2014-10-03T11:53:26Z</time>
      </trkpt>
      <trkpt lat="47.49842" lon="6.16172">
        <ele>295</ele>
        <time>2014-10-03T11:55:40Z</time>
      </trkpt>
      <trkpt lat="47.49837" lon="6.16165">
        <ele>294</ele>
        <time>2014-10-03T11:56:02Z</time>
      </trkpt>
      <trkpt lat="47.49831" lon="6.16156">
        <ele>294</ele>
        <time>2014-10-03T11:56:15Z</time>
      </trkpt>
      <trkpt lat="47.4983" lon="6.16155">
        <ele>293</ele>
        <time>2014-10-03T11:56:21Z</time>
      </trkpt>
      <trkpt lat="47.49824" lon="6.16147">
        <ele>297</ele>
        <time>2014-10-03T11:56:39Z</time>
      </trkpt>
      <trkpt lat="47.49814" lon="6.16138">
        <ele>295</ele>
        <time>2014-10-03T11:56:52Z</time>
      </trkpt>
      <trkpt lat="47.49812" lon="6.16138">
        <ele>294</ele>
        <time>2014-10-03T11:56:58Z</time>
      </trkpt>
      <trkpt lat="47.49806" lon="6.16133">
        <ele>292</ele>
        <time>2014-10-03T11:57:06Z</time>
      </trkpt>
      <trkpt lat="47.498" lon="6.16125">
        <ele>291</ele>
        <time>2014-10-03T11:57:14Z</time>
      </trkpt>
      <trkpt lat="47.49792" lon="6.16118">
        <ele>289</ele>
        <time>2014-10-03T11:57:24Z</time>
      </trkpt>
      <trkpt lat="47.49784" lon="6.16109">
        <ele>290</ele>
        <time>2014-10-03T11:57:35Z</time>
      </trkpt>
      <trkpt lat="47.49779" lon="6.16108">
        <ele>288</ele>
        <time>2014-10-03T11:57:44Z</time>
      </trkpt>
      <trkpt lat="47.49777" lon="6.16111">
        <ele>284</ele>
        <time>2014-10-03T11:57:53Z</time>
      </trkpt>
      <trkpt lat="47.49769" lon="6.16103">
        <ele>283</ele>
        <time>2014-10-03T11:58:02Z</time>
      </trkpt>
      <trkpt lat="47.49761" lon="6.16096">
        <ele>280</ele>
        <time>2014-10-03T11:58:09Z</time>
      </trkpt>
      <trkpt lat="47.4975" lon="6.16083">
        <ele>279</ele>
        <time>2014-10-03T11:58:19Z</time>
      </trkpt>
      <trkpt lat="47.49743" lon="6.16076">
        <ele>277</ele>
        <time>2014-10-03T11:58:27Z</time>
      </trkpt>
      <trkpt lat="47.49733" lon="6.16066">
        <ele>277</ele>
        <time>2014-10-03T11:58:37Z</time>
      </trkpt>
      <trkpt lat="47.49725" lon="6.16061">
        <ele>274</ele>
        <time>2014-10-03T11:58:44Z</time>
      </trkpt>
      <trkpt lat="47.49716" lon="6.16052">
        <ele>273</ele>
        <time>2014-10-03T11:58:54Z</time>
      </trkpt>
      <trkpt lat="47.4971" lon="6.16044">
        <ele>275</ele>
        <time>2014-10-03T11:59:04Z</time>
      </trkpt>
      <trkpt lat="47.49702" lon="6.16035">
        <ele>279</ele>
        <time>2014-10-03T11:59:15Z</time>
      </trkpt>
      <trkpt lat="47.49701" lon="6.16032">
        <ele>278</ele>
        <time>2014-10-03T11:59:19Z</time>
      </trkpt>
      <trkpt lat="47.4969" lon="6.16023">
        <ele>279</ele>
        <time>2014-10-03T11:59:31Z</time>
      </trkpt>
      <trkpt lat="47.49681" lon="6.16012">
        <ele>281</ele>
        <time>2014-10-03T11:59:44Z</time>
      </trkpt>
      <trkpt lat="47.4968" lon="6.16012">
        <ele>282</ele>
        <time>2014-10-03T11:59:48Z</time>
      </trkpt>
      <trkpt lat="47.49666" lon="6.16002">
        <ele>282</ele>
        <time>2014-10-03T12:00:34Z</time>
      </trkpt>
      <trkpt lat="47.49657" lon="6.15992">
        <ele>279</ele>
        <time>2014-10-03T12:00:44Z</time>
      </trkpt>
      <trkpt lat="47.49649" lon="6.15982">
        <ele>279</ele>
        <time>2014-10-03T12:00:54Z</time>
      </trkpt>
      <trkpt lat="47.49639" lon="6.15973">
        <ele>280</ele>
        <time>2014-10-03T12:01:06Z</time>
      </trkpt>
      <trkpt lat="47.49638" lon="6.1597">
        <ele>281</ele>
        <time>2014-10-03T12:01:09Z</time>
      </trkpt>
      <trkpt lat="47.49627" lon="6.15959">
        <ele>282</ele>
        <time>2014-10-03T12:01:21Z</time>
      </trkpt>
      <trkpt lat="47.49621" lon="6.15955">
        <ele>279</ele>
        <time>2014-10-03T12:01:26Z</time>
      </trkpt>
      <trkpt lat="47.49609" lon="6.15939">
        <ele>282</ele>
        <time>2014-10-03T12:01:40Z</time>
      </trkpt>
      <trkpt lat="47.49606" lon="6.15932">
        <ele>285</ele>
        <time>2014-10-03T12:01:46Z</time>
      </trkpt>
      <trkpt lat="47.49595" lon="6.15924">
        <ele>283</ele>
        <time>2014-10-03T12:01:57Z</time>
      </trkpt>
      <trkpt lat="47.49586" lon="6.15917">
        <ele>282</ele>
        <time>2014-10-03T12:02:06Z</time>
      </trkpt>
      <trkpt lat="47.49571" lon="6.15908">
        <ele>278</ele>
        <time>2014-10-03T12:02:19Z</time>
      </trkpt>
      <trkpt lat="47.49566" lon="6.15903">
        <ele>278</ele>
        <time>2014-10-03T12:02:25Z</time>
      </trkpt>
      <trkpt lat="47.49561" lon="6.15892">
        <ele>282</ele>
        <time>2014-10-03T12:02:35Z</time>
      </trkpt>
      <trkpt lat="47.49553" lon="6.15887">
        <ele>282</ele>
        <time>2014-10-03T12:02:44Z</time>
      </trkpt>
      <trkpt lat="47.49547" lon="6.15878">
        <ele>280</ele>
        <time>2014-10-03T12:02:55Z</time>
      </trkpt>
      <trkpt lat="47.49541" lon="6.15871">
        <ele>281</ele>
        <time>2014-10-03T12:03:02Z</time>
      </trkpt>
      <trkpt lat="47.49539" lon="6.15866">
        <ele>283</ele>
        <time>2014-10-03T12:03:06Z</time>
      </trkpt>
      <trkpt lat="47.49528" lon="6.15847">
        <ele>288</ele>
        <time>2014-10-03T12:03:23Z</time>
      </trkpt>
      <trkpt lat="47.49525" lon="6.15841">
        <ele>288</ele>
        <time>2014-10-03T12:03:29Z</time>
      </trkpt>
      <trkpt lat="47.49517" lon="6.15829">
        <ele>287</ele>
        <time>2014-10-03T12:03:40Z</time>
      </trkpt>
      <trkpt lat="47.49514" lon="6.15824">
        <ele>285</ele>
        <time>2014-10-03T12:03:45Z</time>
      </trkpt>
      <trkpt lat="47.49507" lon="6.15816">
        <ele>285</ele>
        <time>2014-10-03T12:03:55Z</time>
      </trkpt>
      <trkpt lat="47.49494" lon="6.15799">
        <ele>287</ele>
        <time>2014-10-03T12:04:07Z</time>
      </trkpt>
      <trkpt lat="47.49492" lon="6.15796">
        <ele>284</ele>
        <time>2014-10-03T12:04:12Z</time>
      </trkpt>
      <trkpt lat="47.49488" lon="6.15787">
        <ele>286</ele>
        <time>2014-10-03T12:04:23Z</time>
      </trkpt>
      <trkpt lat="47.49484" lon="6.15782">
        <ele>284</ele>
        <time>2014-10-03T12:04:30Z</time>
      </trkpt>
      <trkpt lat="47.49476" lon="6.15767">
        <ele>283</ele>
        <time>2014-10-03T12:04:42Z</time>
      </trkpt>
      <trkpt lat="47.49468" lon="6.15762">
        <ele>279</ele>
        <time>2014-10-03T12:04:51Z</time>
      </trkpt>
      <trkpt lat="47.49461" lon="6.15748">
        <ele>287</ele>
        <time>2014-10-03T12:04:59Z</time>
      </trkpt>
      <trkpt lat="47.49452" lon="6.15732">
        <ele>292</ele>
        <time>2014-10-03T12:05:11Z</time>
      </trkpt>
      <trkpt lat="47.49454" lon="6.15733">
        <ele>286</ele>
        <time>2014-10-03T12:05:16Z</time>
      </trkpt>
      <trkpt lat="47.49447" lon="6.15718">
        <ele>291</ele>
        <time>2014-10-03T12:05:27Z</time>
      </trkpt>
      <trkpt lat="47.49442" lon="6.15709">
        <ele>290</ele>
        <time>2014-10-03T12:05:36Z</time>
      </trkpt>
      <trkpt lat="47.49437" lon="6.15705">
        <ele>288</ele>
        <time>2014-10-03T12:05:44Z</time>
      </trkpt>
      <trkpt lat="47.49427" lon="6.15692">
        <ele>288</ele>
        <time>2014-10-03T12:05:55Z</time>
      </trkpt>
      <trkpt lat="47.49417" lon="6.15679">
        <ele>289</ele>
        <time>2014-10-03T12:06:05Z</time>
      </trkpt>
      <trkpt lat="47.49413" lon="6.15671">
        <ele>290</ele>
        <time>2014-10-03T12:06:11Z</time>
      </trkpt>
      <trkpt lat="47.49406" lon="6.15653">
        <ele>291</ele>
        <time>2014-10-03T12:06:26Z</time>
      </trkpt>
      <trkpt lat="47.49403" lon="6.15646">
        <ele>289</ele>
        <time>2014-10-03T12:06:33Z</time>
      </trkpt>
      <trkpt lat="47.49402" lon="6.15644">
        <ele>285</ele>
        <time>2014-10-03T12:06:37Z</time>
      </trkpt>
      <trkpt lat="47.49393" lon="6.15636">
        <ele>284</ele>
        <time>2014-10-03T12:06:49Z</time>
      </trkpt>
      <trkpt lat="47.49382" lon="6.15625">
        <ele>282</ele>
        <time>2014-10-03T12:06:58Z</time>
      </trkpt>
      <trkpt lat="47.49378" lon="6.15621">
        <ele>277</ele>
        <time>2014-10-03T12:07:06Z</time>
      </trkpt>
      <trkpt lat="47.49371" lon="6.15613">
        <ele>277</ele>
        <time>2014-10-03T12:07:14Z</time>
      </trkpt>
      <trkpt lat="47.49361" lon="6.156">
        <ele>275</ele>
        <time>2014-10-03T12:07:24Z</time>
      </trkpt>
      <trkpt lat="47.49351" lon="6.15585">
        <ele>271</ele>
        <time>2014-10-03T12:07:39Z</time>
      </trkpt>
      <trkpt lat="47.49347" lon="6.15582">
        <ele>269</ele>
        <time>2014-10-03T12:07:43Z</time>
      </trkpt>
      <trkpt lat="47.49339" lon="6.15572">
        <ele>267</ele>
        <time>2014-10-03T12:07:52Z</time>
      </trkpt>
      <trkpt lat="47.49333" lon="6.15559">
        <ele>265</ele>
        <time>2014-10-03T12:08:04Z</time>
      </trkpt>
      <trkpt lat="47.49323" lon="6.15546">
        <ele>267</ele>
        <time>2014-10-03T12:08:13Z</time>
      </trkpt>
      <trkpt lat="47.49318" lon="6.15534">
        <ele>272</ele>
        <time>2014-10-03T12:08:21Z</time>
      </trkpt>
      <trkpt lat="47.49311" lon="6.1552">
        <ele>275</ele>
        <time>2014-10-03T12:08:30Z</time>
      </trkpt>
      <trkpt lat="47.49306" lon="6.15511">
        <ele>275</ele>
        <time>2014-10-03T12:08:40Z</time>
      </trkpt>
      <trkpt lat="47.49304" lon="6.15501">
        <ele>281</ele>
        <time>2014-10-03T12:08:50Z</time>
      </trkpt>
      <trkpt lat="47.493" lon="6.15494">
        <ele>277</ele>
        <time>2014-10-03T12:08:58Z</time>
      </trkpt>
      <trkpt lat="47.49293" lon="6.15484">
        <ele>274</ele>
        <time>2014-10-03T12:09:09Z</time>
      </trkpt>
      <trkpt lat="47.4929" lon="6.15476">
        <ele>278</ele>
        <time>2014-10-03T12:09:17Z</time>
      </trkpt>
      <trkpt lat="47.49286" lon="6.15472">
        <ele>271</ele>
        <time>2014-10-03T12:09:24Z</time>
      </trkpt>
      <trkpt lat="47.49277" lon="6.15461">
        <ele>272</ele>
        <time>2014-10-03T12:09:33Z</time>
      </trkpt>
      <trkpt lat="47.49268" lon="6.15448">
        <ele>275</ele>
        <time>2014-10-03T12:09:44Z</time>
      </trkpt>
      <trkpt lat="47.49262" lon="6.15435">
        <ele>277</ele>
        <time>2014-10-03T12:09:54Z</time>
      </trkpt>
      <trkpt lat="47.49258" lon="6.15432">
        <ele>276</ele>
        <time>2014-10-03T12:09:58Z</time>
      </trkpt>
      <trkpt lat="47.49249" lon="6.15425">
        <ele>271</ele>
        <time>2014-10-03T12:10:08Z</time>
      </trkpt>
      <trkpt lat="47.49241" lon="6.15416">
        <ele>270</ele>
        <time>2014-10-03T12:10:17Z</time>
      </trkpt>
      <trkpt lat="47.49236" lon="6.15408">
        <ele>272</ele>
        <time>2014-10-03T12:10:27Z</time>
      </trkpt>
      <trkpt lat="47.49228" lon="6.15398">
        <ele>267</ele>
        <time>2014-10-03T12:10:38Z</time>
      </trkpt>
      <trkpt lat="47.49225" lon="6.15395">
        <ele>268</ele>
        <time>2014-10-03T12:10:42Z</time>
      </trkpt>
      <trkpt lat="47.49211" lon="6.15376">
        <ele>272</ele>
        <time>2014-10-03T12:10:57Z</time>
      </trkpt>
      <trkpt lat="47.49208" lon="6.15367">
        <ele>278</ele>
        <time>2014-10-03T12:11:03Z</time>
      </trkpt>
      <trkpt lat="47.49204" lon="6.15354">
        <ele>280</ele>
        <time>2014-10-03T12:11:15Z</time>
      </trkpt>
      <trkpt lat="47.49205" lon="6.15353">
        <ele>282</ele>
        <time>2014-10-03T12:11:21Z</time>
      </trkpt>
      <trkpt lat="47.49201" lon="6.15339">
        <ele>286</ele>
        <time>2014-10-03T12:11:32Z</time>
      </trkpt>
      <trkpt lat="47.49199" lon="6.15337">
        <ele>285</ele>
        <time>2014-10-03T12:11:40Z</time>
      </trkpt>
      <trkpt lat="47.49196" lon="6.15328">
        <ele>290</ele>
        <time>2014-10-03T12:11:49Z</time>
      </trkpt>
      <trkpt lat="47.49199" lon="6.15315">
        <ele>284</ele>
        <time>2014-10-03T12:12:27Z</time>
      </trkpt>
      <trkpt lat="47.49199" lon="6.15296">
        <ele>283</ele>
        <time>2014-10-03T12:12:38Z</time>
      </trkpt>
      <trkpt lat="47.492" lon="6.15282">
        <ele>281</ele>
        <time>2014-10-03T12:12:48Z</time>
      </trkpt>
      <trkpt lat="47.49201" lon="6.1528">
        <ele>283</ele>
        <time>2014-10-03T12:12:55Z</time>
      </trkpt>
      <trkpt lat="47.49209" lon="6.15317">
        <ele>278</ele>
        <time>2014-10-03T12:14:34Z</time>
      </trkpt>
      <trkpt lat="47.49203" lon="6.15324">
        <ele>279</ele>
        <time>2014-10-03T12:14:44Z</time>
      </trkpt>
      <trkpt lat="47.49197" lon="6.15324">
        <ele>284</ele>
        <time>2014-10-03T12:15:03Z</time>
      </trkpt>
      <trkpt lat="47.49196" lon="6.15326">
        <ele>283</ele>
        <time>2014-10-03T12:15:09Z</time>
      </trkpt>
      <trkpt lat="47.49193" lon="6.15333">
        <ele>285</ele>
        <time>2014-10-03T12:15:26Z</time>
      </trkpt>
      <trkpt lat="47.49196" lon="6.15339">
        <ele>287</ele>
        <time>2014-10-03T12:17:44Z</time>
      </trkpt>
      <trkpt lat="47.49195" lon="6.15335">
        <ele>289</ele>
        <time>2014-10-03T12:17:56Z</time>
      </trkpt>
      <trkpt lat="47.4919" lon="6.15331">
        <ele>283</ele>
        <time>2014-10-03T12:20:11Z</time>
      </trkpt>
      <trkpt lat="47.49181" lon="6.15328">
        <ele>283</ele>
        <time>2014-10-03T12:20:51Z</time>
      </trkpt>
      <trkpt lat="47.49175" lon="6.15327">
        <ele>282</ele>
        <time>2014-10-03T12:20:56Z</time>
      </trkpt>
      <trkpt lat="47.49166" lon="6.15325">
        <ele>287</ele>
        <time>2014-10-03T12:21:05Z</time>
      </trkpt>
      <trkpt lat="47.49159" lon="6.15322">
        <ele>287</ele>
        <time>2014-10-03T12:21:16Z</time>
      </trkpt>
      <trkpt lat="47.49152" lon="6.15309">
        <ele>289</ele>
        <time>2014-10-03T12:21:45Z</time>
      </trkpt>
      <trkpt lat="47.49148" lon="6.15304">
        <ele>287</ele>
        <time>2014-10-03T12:21:50Z</time>
      </trkpt>
      <trkpt lat="47.4914" lon="6.15299">
        <ele>289</ele>
        <time>2014-10-03T12:21:59Z</time>
      </trkpt>
      <trkpt lat="47.49137" lon="6.153">
        <ele>289</ele>
        <time>2014-10-03T12:22:10Z</time>
      </trkpt>
      <trkpt lat="47.49133" lon="6.153">
        <ele>280</ele>
        <time>2014-10-03T12:24:24Z</time>
      </trkpt>
      <trkpt lat="47.49135" lon="6.15301">
        <ele>279</ele>
        <time>2014-10-03T12:26:41Z</time>
      </trkpt>
      <trkpt lat="47.49135" lon="6.15302">
        <ele>282</ele>
        <time>2014-10-03T12:28:57Z</time>
      </trkpt>
      <trkpt lat="47.49136" lon="6.15306">
        <ele>283</ele>
        <time>2014-10-03T12:31:17Z</time>
      </trkpt>
      <trkpt lat="47.49139" lon="6.15304">
        <ele>285</ele>
        <time>2014-10-03T12:33:31Z</time>
      </trkpt>
      <trkpt lat="47.49139" lon="6.15302">
        <ele>287</ele>
        <time>2014-10-03T12:35:47Z</time>
      </trkpt>
      <trkpt lat="47.49137" lon="6.15298">
        <ele>286</ele>
        <time>2014-10-03T12:38:02Z</time>
      </trkpt>
      <trkpt lat="47.49136" lon="6.15303">
        <ele>283</ele>
        <time>2014-10-03T12:40:20Z</time>
      </trkpt>
      <trkpt lat="47.49131" lon="6.15304">
        <ele>284</ele>
        <time>2014-10-03T12:42:34Z</time>
      </trkpt>
      <trkpt lat="47.49141" lon="6.15305">
        <ele>284</ele>
        <time>2014-10-03T12:44:50Z</time>
      </trkpt>
      <trkpt lat="47.49147" lon="6.15315">
        <ele>283</ele>
        <time>2014-10-03T12:45:35Z</time>
      </trkpt>
      <trkpt lat="47.49152" lon="6.1532">
        <ele>282</ele>
        <time>2014-10-03T12:45:44Z</time>
      </trkpt>
      <trkpt lat="47.49156" lon="6.15321">
        <ele>281</ele>
        <time>2014-10-03T12:45:52Z</time>
      </trkpt>
      <trkpt lat="47.49159" lon="6.15321">
        <ele>282</ele>
        <time>2014-10-03T12:46:00Z</time>
      </trkpt>
      <trkpt lat="47.49161" lon="6.1532">
        <ele>276</ele>
        <time>2014-10-03T12:46:08Z</time>
      </trkpt>
      <trkpt lat="47.49167" lon="6.15321">
        <ele>278</ele>
        <time>2014-10-03T12:46:19Z</time>
      </trkpt>
      <trkpt lat="47.49172" lon="6.15325">
        <ele>281</ele>
        <time>2014-10-03T12:46:28Z</time>
      </trkpt>
      <trkpt lat="47.49179" lon="6.15325">
        <ele>281</ele>
        <time>2014-10-03T12:46:37Z</time>
      </trkpt>
      <trkpt lat="47.49182" lon="6.15325">
        <ele>282</ele>
        <time>2014-10-03T12:46:46Z</time>
      </trkpt>
      <trkpt lat="47.49189" lon="6.15317">
        <ele>284</ele>
        <time>2014-10-03T12:47:05Z</time>
      </trkpt>
      <trkpt lat="47.4919" lon="6.15306">
        <ele>285</ele>
        <time>2014-10-03T12:47:15Z</time>
      </trkpt>
      <trkpt lat="47.49192" lon="6.15301">
        <ele>285</ele>
        <time>2014-10-03T12:47:24Z</time>
      </trkpt>
      <trkpt lat="47.49193" lon="6.15284">
        <ele>287</ele>
        <time>2014-10-03T12:47:33Z</time>
      </trkpt>
      <trkpt lat="47.49194" lon="6.15266">
        <ele>291</ele>
        <time>2014-10-03T12:47:42Z</time>
      </trkpt>
      <trkpt lat="47.49195" lon="6.15261">
        <ele>291</ele>
        <time>2014-10-03T12:47:51Z</time>
      </trkpt>
      <trkpt lat="47.49194" lon="6.15243">
        <ele>293</ele>
        <time>2014-10-03T12:48:18Z</time>
      </trkpt>
      <trkpt lat="47.4919" lon="6.15227">
        <ele>294</ele>
        <time>2014-10-03T12:48:27Z</time>
      </trkpt>
      <trkpt lat="47.49184" lon="6.15217">
        <ele>292</ele>
        <time>2014-10-03T12:48:36Z</time>
      </trkpt>
      <trkpt lat="47.49182" lon="6.15207">
        <ele>290</ele>
        <time>2014-10-03T12:48:46Z</time>
      </trkpt>
      <trkpt lat="47.49179" lon="6.15199">
        <ele>293</ele>
        <time>2014-10-03T12:48:54Z</time>
      </trkpt>
      <trkpt lat="47.49176" lon="6.15192">
        <ele>289</ele>
        <time>2014-10-03T12:49:01Z</time>
      </trkpt>
      <trkpt lat="47.49172" lon="6.15177">
        <ele>286</ele>
        <time>2014-10-03T12:49:11Z</time>
      </trkpt>
      <trkpt lat="47.49167" lon="6.15164">
        <ele>290</ele>
        <time>2014-10-03T12:49:18Z</time>
      </trkpt>
      <trkpt lat="47.49153" lon="6.15166">
        <ele>288</ele>
        <time>2014-10-03T12:49:32Z</time>
      </trkpt>
      <trkpt lat="47.49149" lon="6.15162">
        <ele>287</ele>
        <time>2014-10-03T12:49:39Z</time>
      </trkpt>
      <trkpt lat="47.49143" lon="6.15155">
        <ele>290</ele>
        <time>2014-10-03T12:49:48Z</time>
      </trkpt>
      <trkpt lat="47.49138" lon="6.15149">
        <ele>287</ele>
        <time>2014-10-03T12:49:57Z</time>
      </trkpt>
      <trkpt lat="47.49132" lon="6.15139">
        <ele>284</ele>
        <time>2014-10-03T12:50:06Z</time>
      </trkpt>
      <trkpt lat="47.49127" lon="6.15129">
        <ele>282</ele>
        <time>2014-10-03T12:50:16Z</time>
      </trkpt>
      <trkpt lat="47.49123" lon="6.1512">
        <ele>281</ele>
        <time>2014-10-03T12:50:25Z</time>
      </trkpt>
      <trkpt lat="47.49119" lon="6.15112">
        <ele>280</ele>
        <time>2014-10-03T12:50:34Z</time>
      </trkpt>
      <trkpt lat="47.49115" lon="6.15106">
        <ele>280</ele>
        <time>2014-10-03T12:50:43Z</time>
      </trkpt>
      <trkpt lat="47.49112" lon="6.151">
        <ele>279</ele>
        <time>2014-10-03T12:50:49Z</time>
      </trkpt>
      <trkpt lat="47.49109" lon="6.15091">
        <ele>276</ele>
        <time>2014-10-03T12:51:01Z</time>
      </trkpt>
      <trkpt lat="47.49105" lon="6.15083">
        <ele>276</ele>
        <time>2014-10-03T12:51:10Z</time>
      </trkpt>
      <trkpt lat="47.49099" lon="6.15077">
        <ele>270</ele>
        <time>2014-10-03T12:51:19Z</time>
      </trkpt>
      <trkpt lat="47.49095" lon="6.15071">
        <ele>268</ele>
        <time>2014-10-03T12:51:28Z</time>
      </trkpt>
      <trkpt lat="47.49093" lon="6.15066">
        <ele>270</ele>
        <time>2014-10-03T12:51:32Z</time>
      </trkpt>
      <trkpt lat="47.49087" lon="6.1505">
        <ele>271</ele>
        <time>2014-10-03T12:51:45Z</time>
      </trkpt>
      <trkpt lat="47.49084" lon="6.15042">
        <ele>271</ele>
        <time>2014-10-03T12:51:51Z</time>
      </trkpt>
      <trkpt lat="47.49079" lon="6.15032">
        <ele>273</ele>
        <time>2014-10-03T12:52:00Z</time>
      </trkpt>
      <trkpt lat="47.49072" lon="6.15016">
        <ele>279</ele>
        <time>2014-10-03T12:52:13Z</time>
      </trkpt>
      <trkpt lat="47.49071" lon="6.15012">
        <ele>280</ele>
        <time>2014-10-03T12:52:20Z</time>
      </trkpt>
      <trkpt lat="47.49064" lon="6.14998">
        <ele>282</ele>
        <time>2014-10-03T12:52:31Z</time>
      </trkpt>
      <trkpt lat="47.49059" lon="6.14987">
        <ele>282</ele>
        <time>2014-10-03T12:52:39Z</time>
      </trkpt>
      <trkpt lat="47.49056" lon="6.14978">
        <ele>282</ele>
        <time>2014-10-03T12:52:45Z</time>
      </trkpt>
      <trkpt lat="47.49051" lon="6.14965">
        <ele>282</ele>
        <time>2014-10-03T12:52:53Z</time>
      </trkpt>
      <trkpt lat="47.49043" lon="6.14949">
        <ele>281</ele>
        <time>2014-10-03T12:53:09Z</time>
      </trkpt>
      <trkpt lat="47.49039" lon="6.1494">
        <ele>280</ele>
        <time>2014-10-03T12:53:15Z</time>
      </trkpt>
      <trkpt lat="47.49036" lon="6.14934">
        <ele>275</ele>
        <time>2014-10-03T12:53:23Z</time>
      </trkpt>
      <trkpt lat="47.49031" lon="6.1492">
        <ele>276</ele>
        <time>2014-10-03T12:53:35Z</time>
      </trkpt>
      <trkpt lat="47.49026" lon="6.1492">
        <ele>275</ele>
        <time>2014-10-03T12:53:53Z</time>
      </trkpt>
      <trkpt lat="47.49016" lon="6.14917">
        <ele>273</ele>
        <time>2014-10-03T12:54:02Z</time>
      </trkpt>
      <trkpt lat="47.49007" lon="6.14918">
        <ele>272</ele>
        <time>2014-10-03T12:54:11Z</time>
      </trkpt>
      <trkpt lat="47.48999" lon="6.14917">
        <ele>272</ele>
        <time>2014-10-03T12:54:20Z</time>
      </trkpt>
      <trkpt lat="47.48992" lon="6.14915">
        <ele>270</ele>
        <time>2014-10-03T12:54:28Z</time>
      </trkpt>
      <trkpt lat="47.48986" lon="6.14914">
        <ele>267</ele>
        <time>2014-10-03T12:54:37Z</time>
      </trkpt>
      <trkpt lat="47.48978" lon="6.1491">
        <ele>263</ele>
        <time>2014-10-03T12:54:43Z</time>
      </trkpt>
      <trkpt lat="47.48966" lon="6.149">
        <ele>263</ele>
        <time>2014-10-03T12:54:56Z</time>
      </trkpt>
      <trkpt lat="47.48957" lon="6.14893">
        <ele>262</ele>
        <time>2014-10-03T12:55:06Z</time>
      </trkpt>
      <trkpt lat="47.48952" lon="6.14888">
        <ele>260</ele>
        <time>2014-10-03T12:55:12Z</time>
      </trkpt>
      <trkpt lat="47.48945" lon="6.14883">
        <ele>260</ele>
        <time>2014-10-03T12:55:20Z</time>
      </trkpt>
      <trkpt lat="47.48925" lon="6.14897">
        <ele>268</ele>
        <time>2014-10-03T12:55:29Z</time>
      </trkpt>
      <trkpt lat="47.48921" lon="6.14883">
        <ele>267</ele>
        <time>2014-10-03T12:55:38Z</time>
      </trkpt>
      <trkpt lat="47.48918" lon="6.14874">
        <ele>267</ele>
        <time>2014-10-03T12:55:44Z</time>
      </trkpt>
      <trkpt lat="47.48917" lon="6.14865">
        <ele>265</ele>
        <time>2014-10-03T12:55:59Z</time>
      </trkpt>
      <trkpt lat="47.48909" lon="6.14853">
        <ele>270</ele>
        <time>2014-10-03T12:56:15Z</time>
      </trkpt>
      <trkpt lat="47.48905" lon="6.14842">
        <ele>267</ele>
        <time>2014-10-03T12:56:24Z</time>
      </trkpt>
      <trkpt lat="47.48899" lon="6.14838">
        <ele>260</ele>
        <time>2014-10-03T12:56:37Z</time>
      </trkpt>
      <trkpt lat="47.48892" lon="6.14831">
        <ele>259</ele>
        <time>2014-10-03T12:56:45Z</time>
      </trkpt>
      <trkpt lat="47.48886" lon="6.14823">
        <ele>258</ele>
        <time>2014-10-03T12:56:52Z</time>
      </trkpt>
      <trkpt lat="47.48876" lon="6.14826">
        <ele>248</ele>
        <time>2014-10-03T12:57:04Z</time>
      </trkpt>
      <trkpt lat="47.48869" lon="6.14816">
        <ele>250</ele>
        <time>2014-10-03T12:57:14Z</time>
      </trkpt>
      <trkpt lat="47.48863" lon="6.14801">
        <ele>252</ele>
        <time>2014-10-03T12:57:20Z</time>
      </trkpt>
      <trkpt lat="47.48854" lon="6.148">
        <ele>252</ele>
        <time>2014-10-03T12:57:28Z</time>
      </trkpt>
      <trkpt lat="47.48846" lon="6.14792">
        <ele>253</ele>
        <time>2014-10-03T12:57:37Z</time>
      </trkpt>
      <trkpt lat="47.48841" lon="6.14785">
        <ele>253</ele>
        <time>2014-10-03T12:57:43Z</time>
      </trkpt>
      <trkpt lat="47.48835" lon="6.14765">
        <ele>258</ele>
        <time>2014-10-03T12:57:57Z</time>
      </trkpt>
      <trkpt lat="47.48833" lon="6.14762">
        <ele>260</ele>
        <time>2014-10-03T12:58:07Z</time>
      </trkpt>
      <trkpt lat="47.48826" lon="6.14768">
        <ele>261</ele>
        <time>2014-10-03T12:58:15Z</time>
      </trkpt>
      <trkpt lat="47.4882" lon="6.14776">
        <ele>260</ele>
        <time>2014-10-03T12:58:19Z</time>
      </trkpt>
      <trkpt lat="47.48819" lon="6.1477">
        <ele>259</ele>
        <time>2014-10-03T12:58:37Z</time>
      </trkpt>
      <trkpt lat="47.48815" lon="6.14765">
        <ele>261</ele>
        <time>2014-10-03T12:58:54Z</time>
      </trkpt>
      <trkpt lat="47.48811" lon="6.14765">
        <ele>257</ele>
        <time>2014-10-03T12:58:59Z</time>
      </trkpt>
      <trkpt lat="47.48808" lon="6.14759">
        <ele>257</ele>
        <time>2014-10-03T12:59:11Z</time>
      </trkpt>
      <trkpt lat="47.48789" lon="6.14745">
        <ele>271</ele>
        <time>2014-10-03T12:59:55Z</time>
      </trkpt>
      <trkpt lat="47.48779" lon="6.14749">
        <ele>265</ele>
        <time>2014-10-03T13:00:02Z</time>
      </trkpt>
      <trkpt lat="47.48773" lon="6.14745">
        <ele>258</ele>
        <time>2014-10-03T13:00:12Z</time>
      </trkpt>
      <trkpt lat="47.48764" lon="6.14727">
        <ele>261</ele>
        <time>2014-10-03T13:00:22Z</time>
      </trkpt>
      <trkpt lat="47.48764" lon="6.14711">
        <ele>264</ele>
        <time>2014-10-03T13:00:33Z</time>
      </trkpt>
      <trkpt lat="47.48761" lon="6.14697">
        <ele>270</ele>
        <time>2014-10-03T13:00:38Z</time>
      </trkpt>
      <trkpt lat="47.4876" lon="6.14677">
        <ele>269</ele>
        <time>2014-10-03T13:00:47Z</time>
      </trkpt>
      <trkpt lat="47.48763" lon="6.14665">
        <ele>265</ele>
        <time>2014-10-03T13:00:57Z</time>
      </trkpt>
      <trkpt lat="47.48762" lon="6.14658">
        <ele>264</ele>
        <time>2014-10-03T13:01:05Z</time>
      </trkpt>
      <trkpt lat="47.48763" lon="6.14634">
        <ele>265</ele>
        <time>2014-10-03T13:01:17Z</time>
      </trkpt>
      <trkpt lat="47.4876" lon="6.14622">
        <ele>264</ele>
        <time>2014-10-03T13:01:28Z</time>
      </trkpt>
      <trkpt lat="47.48759" lon="6.1462">
        <ele>266</ele>
        <time>2014-10-03T13:01:34Z</time>
      </trkpt>
      <trkpt lat="47.48756" lon="6.14609">
        <ele>263</ele>
        <time>2014-10-03T13:01:42Z</time>
      </trkpt>
      <trkpt lat="47.48754" lon="6.14602">
        <ele>259</ele>
        <time>2014-10-03T13:01:48Z</time>
      </trkpt>
      <trkpt lat="47.4875" lon="6.14587">
        <ele>257</ele>
        <time>2014-10-03T13:02:03Z</time>
      </trkpt>
      <trkpt lat="47.48749" lon="6.14583">
        <ele>250</ele>
        <time>2014-10-03T13:02:11Z</time>
      </trkpt>
      <trkpt lat="47.4874" lon="6.14563">
        <ele>261</ele>
        <time>2014-10-03T13:02:22Z</time>
      </trkpt>
      <trkpt lat="47.48737" lon="6.14555">
        <ele>266</ele>
        <time>2014-10-03T13:02:28Z</time>
      </trkpt>
      <trkpt lat="47.48732" lon="6.14539">
        <ele>267</ele>
        <time>2014-10-03T13:02:39Z</time>
      </trkpt>
      <trkpt lat="47.4873" lon="6.14531">
        <ele>267</ele>
        <time>2014-10-03T13:02:44Z</time>
      </trkpt>
      <trkpt lat="47.48725" lon="6.14506">
        <ele>268</ele>
        <time>2014-10-03T13:02:59Z</time>
      </trkpt>
      <trkpt lat="47.48726" lon="6.14503">
        <ele>265</ele>
        <time>2014-10-03T13:03:02Z</time>
      </trkpt>
      <trkpt lat="47.48735" lon="6.14491">
        <ele>258</ele>
        <time>2014-10-03T13:03:18Z</time>
      </trkpt>
      <trkpt lat="47.48735" lon="6.14479">
        <ele>260</ele>
        <time>2014-10-03T13:03:26Z</time>
      </trkpt>
      <trkpt lat="47.48735" lon="6.14474">
        <ele>261</ele>
        <time>2014-10-03T13:03:30Z</time>
      </trkpt>
      <trkpt lat="47.4874" lon="6.14468">
        <ele>260</ele>
        <time>2014-10-03T13:03:41Z</time>
      </trkpt>
      <trkpt lat="47.48738" lon="6.14453">
        <ele>263</ele>
        <time>2014-10-03T13:03:50Z</time>
      </trkpt>
      <trkpt lat="47.48739" lon="6.14445">
        <ele>263</ele>
        <time>2014-10-03T13:03:58Z</time>
      </trkpt>
      <trkpt lat="47.48733" lon="6.1443">
        <ele>267</ele>
        <time>2014-10-03T13:04:12Z</time>
      </trkpt>
      <trkpt lat="47.4873" lon="6.14415">
        <ele>269</ele>
        <time>2014-10-03T13:04:20Z</time>
      </trkpt>
      <trkpt lat="47.48728" lon="6.14404">
        <ele>272</ele>
        <time>2014-10-03T13:04:28Z</time>
      </trkpt>
      <trkpt lat="47.48725" lon="6.14391">
        <ele>272</ele>
        <time>2014-10-03T13:04:36Z</time>
      </trkpt>
      <trkpt lat="47.48726" lon="6.14383">
        <ele>274</ele>
        <time>2014-10-03T13:04:43Z</time>
      </trkpt>
      <trkpt lat="47.48726" lon="6.14372">
        <ele>273</ele>
        <time>2014-10-03T13:04:56Z</time>
      </trkpt>
      <trkpt lat="47.48726" lon="6.14365">
        <ele>271</ele>
        <time>2014-10-03T13:05:03Z</time>
      </trkpt>
      <trkpt lat="47.48726" lon="6.1435">
        <ele>275</ele>
        <time>2014-10-03T13:05:14Z</time>
      </trkpt>
      <trkpt lat="47.48727" lon="6.14341">
        <ele>275</ele>
        <time>2014-10-03T13:05:21Z</time>
      </trkpt>
      <trkpt lat="47.48732" lon="6.14332">
        <ele>270</ele>
        <time>2014-10-03T13:05:31Z</time>
      </trkpt>
      <trkpt lat="47.48735" lon="6.14326">
        <ele>271</ele>
        <time>2014-10-03T13:05:38Z</time>
      </trkpt>
      <trkpt lat="47.4874" lon="6.1432">
        <ele>266</ele>
        <time>2014-10-03T13:05:47Z</time>
      </trkpt>
      <trkpt lat="47.48738" lon="6.14311">
        <ele>265</ele>
        <time>2014-10-03T13:06:01Z</time>
      </trkpt>
      <trkpt lat="47.48739" lon="6.14306">
        <ele>261</ele>
        <time>2014-10-03T13:06:05Z</time>
      </trkpt>
      <trkpt lat="47.4874" lon="6.14294">
        <ele>265</ele>
        <time>2014-10-03T13:06:13Z</time>
      </trkpt>
      <trkpt lat="47.48743" lon="6.14282">
        <ele>257</ele>
        <time>2014-10-03T13:06:23Z</time>
      </trkpt>
      <trkpt lat="47.48751" lon="6.1428">
        <ele>250</ele>
        <time>2014-10-03T13:06:32Z</time>
      </trkpt>
      <trkpt lat="47.48752" lon="6.14266">
        <ele>253</ele>
        <time>2014-10-03T13:06:40Z</time>
      </trkpt>
      <trkpt lat="47.4875" lon="6.14238">
        <ele>253</ele>
        <time>2014-10-03T13:06:56Z</time>
      </trkpt>
      <trkpt lat="47.48751" lon="6.14229">
        <ele>253</ele>
        <time>2014-10-03T13:07:03Z</time>
      </trkpt>
      <trkpt lat="47.48751" lon="6.14219">
        <ele>260</ele>
        <time>2014-10-03T13:07:10Z</time>
      </trkpt>
      <trkpt lat="47.48749" lon="6.14201">
        <ele>268</ele>
        <time>2014-10-03T13:07:21Z</time>
      </trkpt>
      <trkpt lat="47.4875" lon="6.14196">
        <ele>270</ele>
        <time>2014-10-03T13:07:24Z</time>
      </trkpt>
      <trkpt lat="47.48757" lon="6.14177">
        <ele>271</ele>
        <time>2014-10-03T13:07:40Z</time>
      </trkpt>
      <trkpt lat="47.4876" lon="6.1418">
        <ele>268</ele>
        <time>2014-10-03T13:07:50Z</time>
      </trkpt>
      <trkpt lat="47.48762" lon="6.14182">
        <ele>269</ele>
        <time>2014-10-03T13:07:54Z</time>
      </trkpt>
      <trkpt lat="47.48772" lon="6.14182">
        <ele>275</ele>
        <time>2014-10-03T13:08:04Z</time>
      </trkpt>
      <trkpt lat="47.48781" lon="6.14186">
        <ele>276</ele>
        <time>2014-10-03T13:08:16Z</time>
      </trkpt>
      <trkpt lat="47.48793" lon="6.14191">
        <ele>277</ele>
        <time>2014-10-03T13:08:26Z</time>
      </trkpt>
      <trkpt lat="47.48798" lon="6.14194">
        <ele>276</ele>
        <time>2014-10-03T13:08:33Z</time>
      </trkpt>
      <trkpt lat="47.48806" lon="6.14198">
        <ele>276</ele>
        <time>2014-10-03T13:08:43Z</time>
      </trkpt>
      <trkpt lat="47.48819" lon="6.14202">
        <ele>272</ele>
        <time>2014-10-03T13:08:52Z</time>
      </trkpt>
      <trkpt lat="47.48826" lon="6.14203">
        <ele>273</ele>
        <time>2014-10-03T13:09:01Z</time>
      </trkpt>
      <trkpt lat="47.48835" lon="6.14207">
        <ele>270</ele>
        <time>2014-10-03T13:09:11Z</time>
      </trkpt>
      <trkpt lat="47.48844" lon="6.1421">
        <ele>272</ele>
        <time>2014-10-03T13:09:21Z</time>
      </trkpt>
      <trkpt lat="47.48851" lon="6.1421">
        <ele>270</ele>
        <time>2014-10-03T13:09:29Z</time>
      </trkpt>
      <trkpt lat="47.48855" lon="6.14203">
        <ele>263</ele>
        <time>2014-10-03T13:09:38Z</time>
      </trkpt>
      <trkpt lat="47.48858" lon="6.14199">
        <ele>257</ele>
        <time>2014-10-03T13:09:45Z</time>
      </trkpt>
      <trkpt lat="47.48864" lon="6.14203">
        <ele>259</ele>
        <time>2014-10-03T13:09:55Z</time>
      </trkpt>
      <trkpt lat="47.48876" lon="6.14197">
        <ele>263</ele>
        <time>2014-10-03T13:10:07Z</time>
      </trkpt>
      <trkpt lat="47.48877" lon="6.14196">
        <ele>265</ele>
        <time>2014-10-03T13:10:08Z</time>
      </trkpt>
      <trkpt lat="47.48883" lon="6.14194">
        <ele>264</ele>
        <time>2014-10-03T13:10:22Z</time>
      </trkpt>
      <trkpt lat="47.48895" lon="6.14188">
        <ele>260</ele>
        <time>2014-10-03T13:10:33Z</time>
      </trkpt>
      <trkpt lat="47.48896" lon="6.14191">
        <ele>261</ele>
        <time>2014-10-03T13:10:39Z</time>
      </trkpt>
      <trkpt lat="47.48896" lon="6.14196">
        <ele>261</ele>
        <time>2014-10-03T13:10:47Z</time>
      </trkpt>
      <trkpt lat="47.4889" lon="6.14195">
        <ele>261</ele>
        <time>2014-10-03T13:10:58Z</time>
      </trkpt>
      <trkpt lat="47.48892" lon="6.14194">
        <ele>261</ele>
        <time>2014-10-03T13:11:02Z</time>
      </trkpt>
      <trkpt lat="47.48887" lon="6.14186">
        <ele>259</ele>
        <time>2014-10-03T13:11:18Z</time>
      </trkpt>
      <trkpt lat="47.48889" lon="6.1418">
        <ele>264</ele>
        <time>2014-10-03T13:11:27Z</time>
      </trkpt>
      <trkpt lat="47.48895" lon="6.14176">
        <ele>265</ele>
        <time>2014-10-03T13:11:33Z</time>
      </trkpt>
      <trkpt lat="47.48898" lon="6.1417">
        <ele>263</ele>
        <time>2014-10-03T13:11:39Z</time>
      </trkpt>
      <trkpt lat="47.48892" lon="6.14162">
        <ele>272</ele>
        <time>2014-10-03T13:15:35Z</time>
      </trkpt>
      <trkpt lat="47.48895" lon="6.14166">
        <ele>264</ele>
        <time>2014-10-03T13:15:59Z</time>
      </trkpt>
      <trkpt lat="47.48888" lon="6.14155">
        <ele>272</ele>
        <time>2014-10-03T13:18:09Z</time>
      </trkpt>
      <trkpt lat="47.48898" lon="6.14179">
        <ele>261</ele>
        <time>2014-10-03T13:20:27Z</time>
      </trkpt>
      <trkpt lat="47.48896" lon="6.14172">
        <ele>259</ele>
        <time>2014-10-03T13:20:56Z</time>
      </trkpt>
      <trkpt lat="47.48898" lon="6.14174">
        <ele>259</ele>
        <time>2014-10-03T13:21:07Z</time>
      </trkpt>
      <trkpt lat="47.48884" lon="6.14154">
        <ele>260</ele>
        <time>2014-10-03T13:23:22Z</time>
      </trkpt>
      <trkpt lat="47.48882" lon="6.14151">
        <ele>260</ele>
        <time>2014-10-03T13:25:39Z</time>
      </trkpt>
      <trkpt lat="47.48888" lon="6.14151">
        <ele>269</ele>
        <time>2014-10-03T13:30:05Z</time>
      </trkpt>
      <trkpt lat="47.48896" lon="6.14158">
        <ele>266</ele>
        <time>2014-10-03T13:30:22Z</time>
      </trkpt>
      <trkpt lat="47.48905" lon="6.14165">
        <ele>265</ele>
        <time>2014-10-03T13:30:30Z</time>
      </trkpt>
      <trkpt lat="47.48903" lon="6.1417">
        <ele>265</ele>
        <time>2014-10-03T13:30:41Z</time>
      </trkpt>
      <trkpt lat="47.48904" lon="6.14188">
        <ele>264</ele>
        <time>2014-10-03T13:30:49Z</time>
      </trkpt>
    </trkseg>
  </trk>
</gpx>